<?xml version="1.0" encoding="UTF-8" standalone="no" ?>
<gpx xmlns="http://www.topografix.com/GPX/1/1" xmlns:xsi="http://www.w3.org/2001/XMLSchema-instance" xsi:schemaLocation="http://www.topografix.com/GPX/1/1 http://www.topografix.com/GPX/1/1/gpx.xsd" version="1.1" creator="VisuGPX - https://www.visugpx.com">
  <metadata>
    <name>Etape 3: Saint-Florent-sur-Cher&gt; Selles-sur-Cher</name>
    <desc><![CDATA[tape 3: Saint-Florent-sur-Cher> Selles-sur-Cher
Vendredi 15 juin]]></desc>
  </metadata>
  <trk>
    <name><![CDATA[20180610203831-LJrq6]]></name>
    <trkseg>
      <trkpt lat="47.23463" lon="1.95451">
        <ele>93</ele>
        <time>2018-04-18T08:35:54Z</time>
      </trkpt>
      <trkpt lat="47.23451" lon="1.95419">
        <ele>93</ele>
        <time>2018-04-18T08:36:25Z</time>
      </trkpt>
      <trkpt lat="47.23451" lon="1.95419">
        <ele>93</ele>
        <time>2018-04-18T08:36:47Z</time>
      </trkpt>
      <trkpt lat="47.23451" lon="1.9542">
        <ele>93</ele>
        <time>2018-04-18T08:36:58Z</time>
      </trkpt>
      <trkpt lat="47.23451" lon="1.95419">
        <ele>93</ele>
        <time>2018-04-18T08:37:10Z</time>
      </trkpt>
      <trkpt lat="47.23451" lon="1.95419">
        <ele>93</ele>
        <time>2018-04-18T08:37:15Z</time>
      </trkpt>
      <trkpt lat="47.23451" lon="1.9542">
        <ele>93</ele>
        <time>2018-04-18T08:37:32Z</time>
      </trkpt>
      <trkpt lat="47.23451" lon="1.95418">
        <ele>93</ele>
        <time>2018-04-18T08:37:51Z</time>
      </trkpt>
      <trkpt lat="47.23451" lon="1.95421">
        <ele>93</ele>
        <time>2018-04-18T08:38:05Z</time>
      </trkpt>
      <trkpt lat="47.23451" lon="1.95423">
        <ele>93</ele>
        <time>2018-04-18T08:38:14Z</time>
      </trkpt>
      <trkpt lat="47.23451" lon="1.95423">
        <ele>93</ele>
        <time>2018-04-18T08:38:20Z</time>
      </trkpt>
      <trkpt lat="47.23451" lon="1.95423">
        <ele>93</ele>
        <time>2018-04-18T08:38:21Z</time>
      </trkpt>
      <trkpt lat="47.23451" lon="1.95422">
        <ele>93</ele>
        <time>2018-04-18T08:38:23Z</time>
      </trkpt>
      <trkpt lat="47.23451" lon="1.95422">
        <ele>93</ele>
        <time>2018-04-18T08:38:25Z</time>
      </trkpt>
      <trkpt lat="47.2345" lon="1.95419">
        <ele>93</ele>
        <time>2018-04-18T08:38:28Z</time>
      </trkpt>
      <trkpt lat="47.23449" lon="1.95413">
        <ele>93</ele>
        <time>2018-04-18T08:38:31Z</time>
      </trkpt>
      <trkpt lat="47.2345" lon="1.95405">
        <ele>93</ele>
        <time>2018-04-18T08:38:34Z</time>
      </trkpt>
      <trkpt lat="47.23458" lon="1.95402">
        <ele>93</ele>
        <time>2018-04-18T08:38:38Z</time>
      </trkpt>
      <trkpt lat="47.23461" lon="1.95402">
        <ele>93</ele>
        <time>2018-04-18T08:38:39Z</time>
      </trkpt>
      <trkpt lat="47.2348" lon="1.95403">
        <ele>93</ele>
        <time>2018-04-18T08:38:44Z</time>
      </trkpt>
      <trkpt lat="47.23487" lon="1.95404">
        <ele>93</ele>
        <time>2018-04-18T08:38:46Z</time>
      </trkpt>
      <trkpt lat="47.2349" lon="1.95404">
        <ele>93</ele>
        <time>2018-04-18T08:38:47Z</time>
      </trkpt>
      <trkpt lat="47.23497" lon="1.95405">
        <ele>93</ele>
        <time>2018-04-18T08:38:49Z</time>
      </trkpt>
      <trkpt lat="47.23553" lon="1.95417">
        <ele>92</ele>
        <time>2018-04-18T08:39:05Z</time>
      </trkpt>
      <trkpt lat="47.23562" lon="1.95419">
        <ele>92</ele>
        <time>2018-04-18T08:39:08Z</time>
      </trkpt>
      <trkpt lat="47.2358" lon="1.95422">
        <ele>92</ele>
        <time>2018-04-18T08:39:13Z</time>
      </trkpt>
      <trkpt lat="47.23583" lon="1.95423">
        <ele>92</ele>
        <time>2018-04-18T08:39:14Z</time>
      </trkpt>
      <trkpt lat="47.23591" lon="1.95425">
        <ele>92</ele>
        <time>2018-04-18T08:39:16Z</time>
      </trkpt>
      <trkpt lat="47.23594" lon="1.95426">
        <ele>92</ele>
        <time>2018-04-18T08:39:17Z</time>
      </trkpt>
      <trkpt lat="47.23611" lon="1.9543">
        <ele>92</ele>
        <time>2018-04-18T08:39:22Z</time>
      </trkpt>
      <trkpt lat="47.23669" lon="1.95443">
        <ele>92</ele>
        <time>2018-04-18T08:39:36Z</time>
      </trkpt>
      <trkpt lat="47.23682" lon="1.95445">
        <ele>92</ele>
        <time>2018-04-18T08:39:39Z</time>
      </trkpt>
      <trkpt lat="47.23687" lon="1.95446">
        <ele>92</ele>
        <time>2018-04-18T08:39:40Z</time>
      </trkpt>
      <trkpt lat="47.23709" lon="1.95452">
        <ele>92</ele>
        <time>2018-04-18T08:39:45Z</time>
      </trkpt>
      <trkpt lat="47.23737" lon="1.95459">
        <ele>92</ele>
        <time>2018-04-18T08:39:51Z</time>
      </trkpt>
      <trkpt lat="47.23759" lon="1.95468">
        <ele>91</ele>
        <time>2018-04-18T08:39:56Z</time>
      </trkpt>
      <trkpt lat="47.238" lon="1.95485">
        <ele>92</ele>
        <time>2018-04-18T08:40:05Z</time>
      </trkpt>
      <trkpt lat="47.23805" lon="1.95487">
        <ele>92</ele>
        <time>2018-04-18T08:40:06Z</time>
      </trkpt>
      <trkpt lat="47.23809" lon="1.95489">
        <ele>92</ele>
        <time>2018-04-18T08:40:07Z</time>
      </trkpt>
      <trkpt lat="47.23823" lon="1.95495">
        <ele>92</ele>
        <time>2018-04-18T08:40:10Z</time>
      </trkpt>
      <trkpt lat="47.23836" lon="1.95499">
        <ele>92</ele>
        <time>2018-04-18T08:40:13Z</time>
      </trkpt>
      <trkpt lat="47.23877" lon="1.95514">
        <ele>92</ele>
        <time>2018-04-18T08:40:22Z</time>
      </trkpt>
      <trkpt lat="47.2393" lon="1.95539">
        <ele>92</ele>
        <time>2018-04-18T08:40:34Z</time>
      </trkpt>
      <trkpt lat="47.23947" lon="1.95549">
        <ele>92</ele>
        <time>2018-04-18T08:40:38Z</time>
      </trkpt>
      <trkpt lat="47.24002" lon="1.95577">
        <ele>91</ele>
        <time>2018-04-18T08:40:50Z</time>
      </trkpt>
      <trkpt lat="47.24007" lon="1.95579">
        <ele>92</ele>
        <time>2018-04-18T08:40:51Z</time>
      </trkpt>
      <trkpt lat="47.24011" lon="1.95582">
        <ele>92</ele>
        <time>2018-04-18T08:40:52Z</time>
      </trkpt>
      <trkpt lat="47.24039" lon="1.95594">
        <ele>92</ele>
        <time>2018-04-18T08:40:58Z</time>
      </trkpt>
      <trkpt lat="47.24049" lon="1.95597">
        <ele>93</ele>
        <time>2018-04-18T08:41:00Z</time>
      </trkpt>
      <trkpt lat="47.24053" lon="1.95597">
        <ele>93</ele>
        <time>2018-04-18T08:41:01Z</time>
      </trkpt>
      <trkpt lat="47.24112" lon="1.95594">
        <ele>93</ele>
        <time>2018-04-18T08:41:13Z</time>
      </trkpt>
      <trkpt lat="47.24167" lon="1.95598">
        <ele>92</ele>
        <time>2018-04-18T08:41:25Z</time>
      </trkpt>
      <trkpt lat="47.24207" lon="1.95606">
        <ele>93</ele>
        <time>2018-04-18T08:41:33Z</time>
      </trkpt>
      <trkpt lat="47.24251" lon="1.95623">
        <ele>93</ele>
        <time>2018-04-18T08:41:42Z</time>
      </trkpt>
      <trkpt lat="47.24299" lon="1.95663">
        <ele>94</ele>
        <time>2018-04-18T08:41:53Z</time>
      </trkpt>
      <trkpt lat="47.24354" lon="1.95692">
        <ele>94</ele>
        <time>2018-04-18T08:42:05Z</time>
      </trkpt>
      <trkpt lat="47.24409" lon="1.95709">
        <ele>94</ele>
        <time>2018-04-18T08:42:16Z</time>
      </trkpt>
      <trkpt lat="47.24434" lon="1.95715">
        <ele>94</ele>
        <time>2018-04-18T08:42:21Z</time>
      </trkpt>
      <trkpt lat="47.24487" lon="1.95735">
        <ele>94</ele>
        <time>2018-04-18T08:42:32Z</time>
      </trkpt>
      <trkpt lat="47.24515" lon="1.95747">
        <ele>94</ele>
        <time>2018-04-18T08:42:38Z</time>
      </trkpt>
      <trkpt lat="47.2452" lon="1.95748">
        <ele>94</ele>
        <time>2018-04-18T08:42:39Z</time>
      </trkpt>
      <trkpt lat="47.24529" lon="1.95747">
        <ele>94</ele>
        <time>2018-04-18T08:42:41Z</time>
      </trkpt>
      <trkpt lat="47.24537" lon="1.95742">
        <ele>94</ele>
        <time>2018-04-18T08:42:43Z</time>
      </trkpt>
      <trkpt lat="47.24563" lon="1.95721">
        <ele>94</ele>
        <time>2018-04-18T08:43:22Z</time>
      </trkpt>
      <trkpt lat="47.24559" lon="1.95737">
        <ele>94</ele>
        <time>2018-04-18T08:43:29Z</time>
      </trkpt>
      <trkpt lat="47.24555" lon="1.95749">
        <ele>94</ele>
        <time>2018-04-18T08:43:35Z</time>
      </trkpt>
      <trkpt lat="47.24553" lon="1.9576">
        <ele>95</ele>
        <time>2018-04-18T08:43:49Z</time>
      </trkpt>
      <trkpt lat="47.24552" lon="1.95758">
        <ele>95</ele>
        <time>2018-04-18T08:44:23Z</time>
      </trkpt>
      <trkpt lat="47.24553" lon="1.95751">
        <ele>95</ele>
        <time>2018-04-18T08:44:41Z</time>
      </trkpt>
      <trkpt lat="47.24556" lon="1.9574">
        <ele>94</ele>
        <time>2018-04-18T08:44:48Z</time>
      </trkpt>
      <trkpt lat="47.2456" lon="1.95722">
        <ele>94</ele>
        <time>2018-04-18T08:45:01Z</time>
      </trkpt>
      <trkpt lat="47.24561" lon="1.95722">
        <ele>94</ele>
        <time>2018-04-18T08:45:02Z</time>
      </trkpt>
      <trkpt lat="47.24564" lon="1.95725">
        <ele>94</ele>
        <time>2018-04-18T08:45:11Z</time>
      </trkpt>
      <trkpt lat="47.24563" lon="1.95725">
        <ele>94</ele>
        <time>2018-04-18T08:45:16Z</time>
      </trkpt>
      <trkpt lat="47.24563" lon="1.95726">
        <ele>94</ele>
        <time>2018-04-18T08:45:19Z</time>
      </trkpt>
      <trkpt lat="47.24562" lon="1.95726">
        <ele>94</ele>
        <time>2018-04-18T08:45:35Z</time>
      </trkpt>
      <trkpt lat="47.24562" lon="1.95726">
        <ele>94</ele>
        <time>2018-04-18T08:45:40Z</time>
      </trkpt>
      <trkpt lat="47.24562" lon="1.95726">
        <ele>94</ele>
        <time>2018-04-18T08:45:52Z</time>
      </trkpt>
      <trkpt lat="47.24563" lon="1.95727">
        <ele>94</ele>
        <time>2018-04-18T08:46:14Z</time>
      </trkpt>
      <trkpt lat="47.24561" lon="1.95727">
        <ele>94</ele>
        <time>2018-04-18T08:46:26Z</time>
      </trkpt>
      <trkpt lat="47.24568" lon="1.95725">
        <ele>94</ele>
        <time>2018-04-18T08:47:06Z</time>
      </trkpt>
      <trkpt lat="47.24563" lon="1.95725">
        <ele>94</ele>
        <time>2018-04-18T08:47:55Z</time>
      </trkpt>
      <trkpt lat="47.24562" lon="1.95727">
        <ele>94</ele>
        <time>2018-04-18T08:48:26Z</time>
      </trkpt>
      <trkpt lat="47.24561" lon="1.95729">
        <ele>94</ele>
        <time>2018-04-18T08:48:53Z</time>
      </trkpt>
      <trkpt lat="47.24564" lon="1.95726">
        <ele>94</ele>
        <time>2018-04-18T08:49:19Z</time>
      </trkpt>
      <trkpt lat="47.24564" lon="1.95726">
        <ele>94</ele>
        <time>2018-04-18T08:49:20Z</time>
      </trkpt>
      <trkpt lat="47.24564" lon="1.95727">
        <ele>94</ele>
        <time>2018-04-18T08:49:37Z</time>
      </trkpt>
      <trkpt lat="47.24565" lon="1.95726">
        <ele>94</ele>
        <time>2018-04-18T08:49:54Z</time>
      </trkpt>
      <trkpt lat="47.24565" lon="1.95725">
        <ele>94</ele>
        <time>2018-04-18T08:50:06Z</time>
      </trkpt>
      <trkpt lat="47.24564" lon="1.95726">
        <ele>94</ele>
        <time>2018-04-18T08:50:11Z</time>
      </trkpt>
      <trkpt lat="47.24564" lon="1.95727">
        <ele>94</ele>
        <time>2018-04-18T08:51:01Z</time>
      </trkpt>
      <trkpt lat="47.24563" lon="1.95726">
        <ele>94</ele>
        <time>2018-04-18T08:51:33Z</time>
      </trkpt>
      <trkpt lat="47.24563" lon="1.95722">
        <ele>94</ele>
        <time>2018-04-18T08:52:05Z</time>
      </trkpt>
      <trkpt lat="47.24564" lon="1.95722">
        <ele>94</ele>
        <time>2018-04-18T08:52:08Z</time>
      </trkpt>
      <trkpt lat="47.24564" lon="1.95721">
        <ele>94</ele>
        <time>2018-04-18T08:52:10Z</time>
      </trkpt>
      <trkpt lat="47.24564" lon="1.95719">
        <ele>94</ele>
        <time>2018-04-18T08:52:15Z</time>
      </trkpt>
      <trkpt lat="47.24565" lon="1.95715">
        <ele>94</ele>
        <time>2018-04-18T08:52:30Z</time>
      </trkpt>
      <trkpt lat="47.24565" lon="1.95714">
        <ele>94</ele>
        <time>2018-04-18T08:53:09Z</time>
      </trkpt>
      <trkpt lat="47.24567" lon="1.95713">
        <ele>94</ele>
        <time>2018-04-18T08:53:16Z</time>
      </trkpt>
      <trkpt lat="47.24569" lon="1.95713">
        <ele>94</ele>
        <time>2018-04-18T08:53:26Z</time>
      </trkpt>
      <trkpt lat="47.2457" lon="1.95713">
        <ele>94</ele>
        <time>2018-04-18T08:53:27Z</time>
      </trkpt>
      <trkpt lat="47.2457" lon="1.95714">
        <ele>94</ele>
        <time>2018-04-18T08:53:28Z</time>
      </trkpt>
      <trkpt lat="47.24569" lon="1.95716">
        <ele>94</ele>
        <time>2018-04-18T08:53:45Z</time>
      </trkpt>
      <trkpt lat="47.24567" lon="1.95716">
        <ele>94</ele>
        <time>2018-04-18T08:53:51Z</time>
      </trkpt>
      <trkpt lat="47.24566" lon="1.95713">
        <ele>94</ele>
        <time>2018-04-18T08:54:10Z</time>
      </trkpt>
      <trkpt lat="47.24567" lon="1.95714">
        <ele>94</ele>
        <time>2018-04-18T08:54:17Z</time>
      </trkpt>
      <trkpt lat="47.24565" lon="1.95715">
        <ele>94</ele>
        <time>2018-04-18T08:54:20Z</time>
      </trkpt>
      <trkpt lat="47.24564" lon="1.95716">
        <ele>94</ele>
        <time>2018-04-18T08:54:23Z</time>
      </trkpt>
      <trkpt lat="47.24563" lon="1.95717">
        <ele>94</ele>
        <time>2018-04-18T08:54:26Z</time>
      </trkpt>
      <trkpt lat="47.24561" lon="1.95717">
        <ele>94</ele>
        <time>2018-04-18T08:54:29Z</time>
      </trkpt>
      <trkpt lat="47.24561" lon="1.95718">
        <ele>94</ele>
        <time>2018-04-18T08:54:32Z</time>
      </trkpt>
      <trkpt lat="47.24561" lon="1.95718">
        <ele>94</ele>
        <time>2018-04-18T08:54:33Z</time>
      </trkpt>
      <trkpt lat="47.24561" lon="1.95718">
        <ele>94</ele>
        <time>2018-04-18T08:54:47Z</time>
      </trkpt>
      <trkpt lat="47.24565" lon="1.95711">
        <ele>94</ele>
        <time>2018-04-18T08:55:11Z</time>
      </trkpt>
      <trkpt lat="47.24575" lon="1.95691">
        <ele>94</ele>
        <time>2018-04-18T08:55:17Z</time>
      </trkpt>
      <trkpt lat="47.24582" lon="1.95681">
        <ele>94</ele>
        <time>2018-04-18T08:55:20Z</time>
      </trkpt>
      <trkpt lat="47.24586" lon="1.95674">
        <ele>94</ele>
        <time>2018-04-18T08:55:22Z</time>
      </trkpt>
      <trkpt lat="47.24588" lon="1.9567">
        <ele>94</ele>
        <time>2018-04-18T08:55:23Z</time>
      </trkpt>
      <trkpt lat="47.24593" lon="1.95662">
        <ele>94</ele>
        <time>2018-04-18T08:55:25Z</time>
      </trkpt>
      <trkpt lat="47.24602" lon="1.95646">
        <ele>93</ele>
        <time>2018-04-18T08:55:29Z</time>
      </trkpt>
      <trkpt lat="47.24614" lon="1.95623">
        <ele>93</ele>
        <time>2018-04-18T08:55:36Z</time>
      </trkpt>
      <trkpt lat="47.24623" lon="1.9561">
        <ele>93</ele>
        <time>2018-04-18T08:55:40Z</time>
      </trkpt>
      <trkpt lat="47.24637" lon="1.95587">
        <ele>93</ele>
        <time>2018-04-18T08:55:46Z</time>
      </trkpt>
      <trkpt lat="47.24643" lon="1.95576">
        <ele>93</ele>
        <time>2018-04-18T08:55:49Z</time>
      </trkpt>
      <trkpt lat="47.2466" lon="1.95544">
        <ele>93</ele>
        <time>2018-04-18T08:55:57Z</time>
      </trkpt>
      <trkpt lat="47.24671" lon="1.95521">
        <ele>93</ele>
        <time>2018-04-18T08:56:03Z</time>
      </trkpt>
      <trkpt lat="47.24684" lon="1.955">
        <ele>93</ele>
        <time>2018-04-18T08:56:08Z</time>
      </trkpt>
      <trkpt lat="47.24718" lon="1.95433">
        <ele>94</ele>
        <time>2018-04-18T08:56:24Z</time>
      </trkpt>
      <trkpt lat="47.24749" lon="1.95366">
        <ele>93</ele>
        <time>2018-04-18T08:56:40Z</time>
      </trkpt>
      <trkpt lat="47.24782" lon="1.95299">
        <ele>93</ele>
        <time>2018-04-18T08:56:57Z</time>
      </trkpt>
      <trkpt lat="47.24804" lon="1.9525">
        <ele>93</ele>
        <time>2018-04-18T08:57:11Z</time>
      </trkpt>
      <trkpt lat="47.24827" lon="1.95199">
        <ele>93</ele>
        <time>2018-04-18T08:57:24Z</time>
      </trkpt>
      <trkpt lat="47.24829" lon="1.95195">
        <ele>94</ele>
        <time>2018-04-18T08:57:25Z</time>
      </trkpt>
      <trkpt lat="47.24831" lon="1.95192">
        <ele>94</ele>
        <time>2018-04-18T08:57:26Z</time>
      </trkpt>
      <trkpt lat="47.24834" lon="1.95183">
        <ele>94</ele>
        <time>2018-04-18T08:57:28Z</time>
      </trkpt>
      <trkpt lat="47.2484" lon="1.9517">
        <ele>95</ele>
        <time>2018-04-18T08:57:31Z</time>
      </trkpt>
      <trkpt lat="47.24843" lon="1.95161">
        <ele>95</ele>
        <time>2018-04-18T08:57:33Z</time>
      </trkpt>
      <trkpt lat="47.24851" lon="1.95143">
        <ele>94</ele>
        <time>2018-04-18T08:57:37Z</time>
      </trkpt>
      <trkpt lat="47.24874" lon="1.95096">
        <ele>94</ele>
        <time>2018-04-18T08:57:48Z</time>
      </trkpt>
      <trkpt lat="47.24884" lon="1.95074">
        <ele>94</ele>
        <time>2018-04-18T08:57:53Z</time>
      </trkpt>
      <trkpt lat="47.24912" lon="1.95006">
        <ele>95</ele>
        <time>2018-04-18T08:58:09Z</time>
      </trkpt>
      <trkpt lat="47.24937" lon="1.94956">
        <ele>95</ele>
        <time>2018-04-18T08:58:21Z</time>
      </trkpt>
      <trkpt lat="47.24969" lon="1.94889">
        <ele>95</ele>
        <time>2018-04-18T08:58:37Z</time>
      </trkpt>
      <trkpt lat="47.24978" lon="1.94873">
        <ele>95</ele>
        <time>2018-04-18T08:58:41Z</time>
      </trkpt>
      <trkpt lat="47.2498" lon="1.94869">
        <ele>95</ele>
        <time>2018-04-18T08:58:42Z</time>
      </trkpt>
      <trkpt lat="47.24989" lon="1.94851">
        <ele>95</ele>
        <time>2018-04-18T08:58:46Z</time>
      </trkpt>
      <trkpt lat="47.24997" lon="1.94835">
        <ele>95</ele>
        <time>2018-04-18T08:58:50Z</time>
      </trkpt>
      <trkpt lat="47.25026" lon="1.94763">
        <ele>94</ele>
        <time>2018-04-18T08:59:07Z</time>
      </trkpt>
      <trkpt lat="47.25036" lon="1.94742">
        <ele>93</ele>
        <time>2018-04-18T08:59:12Z</time>
      </trkpt>
      <trkpt lat="47.25041" lon="1.94734">
        <ele>93</ele>
        <time>2018-04-18T08:59:14Z</time>
      </trkpt>
      <trkpt lat="47.25045" lon="1.94726">
        <ele>93</ele>
        <time>2018-04-18T08:59:16Z</time>
      </trkpt>
      <trkpt lat="47.25047" lon="1.94721">
        <ele>93</ele>
        <time>2018-04-18T08:59:17Z</time>
      </trkpt>
      <trkpt lat="47.25049" lon="1.94717">
        <ele>93</ele>
        <time>2018-04-18T08:59:18Z</time>
      </trkpt>
      <trkpt lat="47.25051" lon="1.94713">
        <ele>93</ele>
        <time>2018-04-18T08:59:19Z</time>
      </trkpt>
      <trkpt lat="47.25053" lon="1.94709">
        <ele>93</ele>
        <time>2018-04-18T08:59:20Z</time>
      </trkpt>
      <trkpt lat="47.25058" lon="1.94696">
        <ele>93</ele>
        <time>2018-04-18T08:59:23Z</time>
      </trkpt>
      <trkpt lat="47.25076" lon="1.94651">
        <ele>93</ele>
        <time>2018-04-18T08:59:37Z</time>
      </trkpt>
      <trkpt lat="47.25078" lon="1.94635">
        <ele>92</ele>
        <time>2018-04-18T08:59:44Z</time>
      </trkpt>
      <trkpt lat="47.25079" lon="1.94633">
        <ele>92</ele>
        <time>2018-04-18T08:59:55Z</time>
      </trkpt>
      <trkpt lat="47.25078" lon="1.94633">
        <ele>92</ele>
        <time>2018-04-18T09:00:03Z</time>
      </trkpt>
      <trkpt lat="47.25078" lon="1.94633">
        <ele>92</ele>
        <time>2018-04-18T09:00:10Z</time>
      </trkpt>
      <trkpt lat="47.25077" lon="1.94633">
        <ele>92</ele>
        <time>2018-04-18T09:00:21Z</time>
      </trkpt>
      <trkpt lat="47.25077" lon="1.94633">
        <ele>92</ele>
        <time>2018-04-18T09:00:26Z</time>
      </trkpt>
      <trkpt lat="47.25077" lon="1.94633">
        <ele>92</ele>
        <time>2018-04-18T09:00:29Z</time>
      </trkpt>
      <trkpt lat="47.25078" lon="1.94632">
        <ele>92</ele>
        <time>2018-04-18T09:00:32Z</time>
      </trkpt>
      <trkpt lat="47.25078" lon="1.94632">
        <ele>92</ele>
        <time>2018-04-18T09:00:33Z</time>
      </trkpt>
      <trkpt lat="47.25077" lon="1.94632">
        <ele>92</ele>
        <time>2018-04-18T09:00:34Z</time>
      </trkpt>
      <trkpt lat="47.25078" lon="1.94632">
        <ele>92</ele>
        <time>2018-04-18T09:00:35Z</time>
      </trkpt>
      <trkpt lat="47.25079" lon="1.94626">
        <ele>92</ele>
        <time>2018-04-18T09:00:45Z</time>
      </trkpt>
      <trkpt lat="47.25094" lon="1.94592">
        <ele>92</ele>
        <time>2018-04-18T09:00:53Z</time>
      </trkpt>
      <trkpt lat="47.25099" lon="1.94582">
        <ele>92</ele>
        <time>2018-04-18T09:00:55Z</time>
      </trkpt>
      <trkpt lat="47.25101" lon="1.94577">
        <ele>92</ele>
        <time>2018-04-18T09:00:56Z</time>
      </trkpt>
      <trkpt lat="47.25104" lon="1.94572">
        <ele>92</ele>
        <time>2018-04-18T09:00:57Z</time>
      </trkpt>
      <trkpt lat="47.25106" lon="1.94567">
        <ele>92</ele>
        <time>2018-04-18T09:00:58Z</time>
      </trkpt>
      <trkpt lat="47.25108" lon="1.94562">
        <ele>92</ele>
        <time>2018-04-18T09:00:59Z</time>
      </trkpt>
      <trkpt lat="47.2514" lon="1.94496">
        <ele>92</ele>
        <time>2018-04-18T09:01:12Z</time>
      </trkpt>
      <trkpt lat="47.25153" lon="1.94467">
        <ele>92</ele>
        <time>2018-04-18T09:01:17Z</time>
      </trkpt>
      <trkpt lat="47.25177" lon="1.94422">
        <ele>92</ele>
        <time>2018-04-18T09:01:25Z</time>
      </trkpt>
      <trkpt lat="47.25188" lon="1.94396">
        <ele>93</ele>
        <time>2018-04-18T09:01:29Z</time>
      </trkpt>
      <trkpt lat="47.25219" lon="1.94329">
        <ele>94</ele>
        <time>2018-04-18T09:01:40Z</time>
      </trkpt>
      <trkpt lat="47.25242" lon="1.94283">
        <ele>94</ele>
        <time>2018-04-18T09:01:48Z</time>
      </trkpt>
      <trkpt lat="47.25274" lon="1.94214">
        <ele>94</ele>
        <time>2018-04-18T09:02:00Z</time>
      </trkpt>
      <trkpt lat="47.25296" lon="1.94165">
        <ele>95</ele>
        <time>2018-04-18T09:02:08Z</time>
      </trkpt>
      <trkpt lat="47.25323" lon="1.94105">
        <ele>94</ele>
        <time>2018-04-18T09:02:18Z</time>
      </trkpt>
      <trkpt lat="47.25343" lon="1.94063">
        <ele>94</ele>
        <time>2018-04-18T09:02:25Z</time>
      </trkpt>
      <trkpt lat="47.25346" lon="1.94057">
        <ele>94</ele>
        <time>2018-04-18T09:02:26Z</time>
      </trkpt>
      <trkpt lat="47.25351" lon="1.94046">
        <ele>94</ele>
        <time>2018-04-18T09:02:28Z</time>
      </trkpt>
      <trkpt lat="47.25354" lon="1.94041">
        <ele>94</ele>
        <time>2018-04-18T09:02:29Z</time>
      </trkpt>
      <trkpt lat="47.25364" lon="1.94001">
        <ele>95</ele>
        <time>2018-04-18T09:02:35Z</time>
      </trkpt>
      <trkpt lat="47.25369" lon="1.9396">
        <ele>95</ele>
        <time>2018-04-18T09:02:41Z</time>
      </trkpt>
      <trkpt lat="47.25375" lon="1.93899">
        <ele>95</ele>
        <time>2018-04-18T09:02:50Z</time>
      </trkpt>
      <trkpt lat="47.25378" lon="1.93871">
        <ele>95</ele>
        <time>2018-04-18T09:02:54Z</time>
      </trkpt>
      <trkpt lat="47.25379" lon="1.93828">
        <ele>94</ele>
        <time>2018-04-18T09:03:00Z</time>
      </trkpt>
      <trkpt lat="47.25388" lon="1.93787">
        <ele>94</ele>
        <time>2018-04-18T09:03:06Z</time>
      </trkpt>
      <trkpt lat="47.25392" lon="1.93747">
        <ele>94</ele>
        <time>2018-04-18T09:03:12Z</time>
      </trkpt>
      <trkpt lat="47.25393" lon="1.93726">
        <ele>94</ele>
        <time>2018-04-18T09:03:15Z</time>
      </trkpt>
      <trkpt lat="47.25394" lon="1.93686">
        <ele>94</ele>
        <time>2018-04-18T09:03:21Z</time>
      </trkpt>
      <trkpt lat="47.25396" lon="1.93673">
        <ele>94</ele>
        <time>2018-04-18T09:03:23Z</time>
      </trkpt>
      <trkpt lat="47.25405" lon="1.93592">
        <ele>94</ele>
        <time>2018-04-18T09:03:36Z</time>
      </trkpt>
      <trkpt lat="47.25402" lon="1.9355">
        <ele>94</ele>
        <time>2018-04-18T09:03:42Z</time>
      </trkpt>
      <trkpt lat="47.25399" lon="1.93504">
        <ele>94</ele>
        <time>2018-04-18T09:03:49Z</time>
      </trkpt>
      <trkpt lat="47.25407" lon="1.93423">
        <ele>93</ele>
        <time>2018-04-18T09:04:02Z</time>
      </trkpt>
      <trkpt lat="47.25392" lon="1.93403">
        <ele>93</ele>
        <time>2018-04-18T09:04:05Z</time>
      </trkpt>
      <trkpt lat="47.25378" lon="1.93381">
        <ele>93</ele>
        <time>2018-04-18T09:04:09Z</time>
      </trkpt>
      <trkpt lat="47.25358" lon="1.93322">
        <ele>92</ele>
        <time>2018-04-18T09:04:17Z</time>
      </trkpt>
      <trkpt lat="47.25358" lon="1.93306">
        <ele>92</ele>
        <time>2018-04-18T09:04:19Z</time>
      </trkpt>
      <trkpt lat="47.2536" lon="1.93252">
        <ele>91</ele>
        <time>2018-04-18T09:04:26Z</time>
      </trkpt>
      <trkpt lat="47.25359" lon="1.93168">
        <ele>91</ele>
        <time>2018-04-18T09:04:37Z</time>
      </trkpt>
      <trkpt lat="47.2536" lon="1.93083">
        <ele>91</ele>
        <time>2018-04-18T09:04:48Z</time>
      </trkpt>
      <trkpt lat="47.25372" lon="1.93011">
        <ele>92</ele>
        <time>2018-04-18T09:04:59Z</time>
      </trkpt>
      <trkpt lat="47.25378" lon="1.92985">
        <ele>92</ele>
        <time>2018-04-18T09:05:03Z</time>
      </trkpt>
      <trkpt lat="47.25389" lon="1.9296">
        <ele>92</ele>
        <time>2018-04-18T09:05:07Z</time>
      </trkpt>
      <trkpt lat="47.25418" lon="1.92907">
        <ele>92</ele>
        <time>2018-04-18T09:05:17Z</time>
      </trkpt>
      <trkpt lat="47.25436" lon="1.92862">
        <ele>92</ele>
        <time>2018-04-18T09:05:25Z</time>
      </trkpt>
      <trkpt lat="47.25446" lon="1.92792">
        <ele>91</ele>
        <time>2018-04-18T09:05:35Z</time>
      </trkpt>
      <trkpt lat="47.25454" lon="1.92767">
        <ele>91</ele>
        <time>2018-04-18T09:05:39Z</time>
      </trkpt>
      <trkpt lat="47.25469" lon="1.92731">
        <ele>91</ele>
        <time>2018-04-18T09:05:45Z</time>
      </trkpt>
      <trkpt lat="47.25485" lon="1.92673">
        <ele>91</ele>
        <time>2018-04-18T09:05:55Z</time>
      </trkpt>
      <trkpt lat="47.25508" lon="1.92597">
        <ele>92</ele>
        <time>2018-04-18T09:06:10Z</time>
      </trkpt>
      <trkpt lat="47.25535" lon="1.92553">
        <ele>92</ele>
        <time>2018-04-18T09:06:28Z</time>
      </trkpt>
      <trkpt lat="47.25558" lon="1.92486">
        <ele>92</ele>
        <time>2018-04-18T09:07:22Z</time>
      </trkpt>
      <trkpt lat="47.2558" lon="1.92409">
        <ele>91</ele>
        <time>2018-04-18T09:07:37Z</time>
      </trkpt>
      <trkpt lat="47.25609" lon="1.92337">
        <ele>91</ele>
        <time>2018-04-18T09:07:49Z</time>
      </trkpt>
      <trkpt lat="47.25634" lon="1.92264">
        <ele>91</ele>
        <time>2018-04-18T09:08:00Z</time>
      </trkpt>
      <trkpt lat="47.25657" lon="1.92191">
        <ele>91</ele>
        <time>2018-04-18T09:08:11Z</time>
      </trkpt>
      <trkpt lat="47.25684" lon="1.92114">
        <ele>91</ele>
        <time>2018-04-18T09:08:22Z</time>
      </trkpt>
      <trkpt lat="47.25698" lon="1.92079">
        <ele>91</ele>
        <time>2018-04-18T09:08:27Z</time>
      </trkpt>
      <trkpt lat="47.25707" lon="1.92059">
        <ele>91</ele>
        <time>2018-04-18T09:08:30Z</time>
      </trkpt>
      <trkpt lat="47.25721" lon="1.92017">
        <ele>91</ele>
        <time>2018-04-18T09:08:36Z</time>
      </trkpt>
      <trkpt lat="47.25729" lon="1.91998">
        <ele>91</ele>
        <time>2018-04-18T09:08:39Z</time>
      </trkpt>
      <trkpt lat="47.25743" lon="1.91969">
        <ele>91</ele>
        <time>2018-04-18T09:08:44Z</time>
      </trkpt>
      <trkpt lat="47.2575" lon="1.9194">
        <ele>92</ele>
        <time>2018-04-18T09:08:49Z</time>
      </trkpt>
      <trkpt lat="47.25765" lon="1.91896">
        <ele>92</ele>
        <time>2018-04-18T09:08:57Z</time>
      </trkpt>
      <trkpt lat="47.25786" lon="1.91823">
        <ele>93</ele>
        <time>2018-04-18T09:09:09Z</time>
      </trkpt>
      <trkpt lat="47.25791" lon="1.91811">
        <ele>93</ele>
        <time>2018-04-18T09:09:11Z</time>
      </trkpt>
      <trkpt lat="47.25809" lon="1.91753">
        <ele>94</ele>
        <time>2018-04-18T09:09:20Z</time>
      </trkpt>
      <trkpt lat="47.25837" lon="1.9168">
        <ele>94</ele>
        <time>2018-04-18T09:09:34Z</time>
      </trkpt>
      <trkpt lat="47.25885" lon="1.91638">
        <ele>93</ele>
        <time>2018-04-18T09:09:46Z</time>
      </trkpt>
      <trkpt lat="47.25909" lon="1.91622">
        <ele>93</ele>
        <time>2018-04-18T09:09:51Z</time>
      </trkpt>
      <trkpt lat="47.25922" lon="1.91613">
        <ele>94</ele>
        <time>2018-04-18T09:09:54Z</time>
      </trkpt>
      <trkpt lat="47.25931" lon="1.91608">
        <ele>94</ele>
        <time>2018-04-18T09:09:56Z</time>
      </trkpt>
      <trkpt lat="47.2596" lon="1.91583">
        <ele>94</ele>
        <time>2018-04-18T09:10:03Z</time>
      </trkpt>
      <trkpt lat="47.25991" lon="1.91516">
        <ele>94</ele>
        <time>2018-04-18T09:10:16Z</time>
      </trkpt>
      <trkpt lat="47.26015" lon="1.91439">
        <ele>97</ele>
        <time>2018-04-18T09:10:29Z</time>
      </trkpt>
      <trkpt lat="47.26028" lon="1.91361">
        <ele>95</ele>
        <time>2018-04-18T09:10:40Z</time>
      </trkpt>
      <trkpt lat="47.26053" lon="1.91291">
        <ele>94</ele>
        <time>2018-04-18T09:10:50Z</time>
      </trkpt>
      <trkpt lat="47.26077" lon="1.91219">
        <ele>93</ele>
        <time>2018-04-18T09:11:00Z</time>
      </trkpt>
      <trkpt lat="47.26089" lon="1.91181">
        <ele>94</ele>
        <time>2018-04-18T09:11:05Z</time>
      </trkpt>
      <trkpt lat="47.26099" lon="1.91153">
        <ele>93</ele>
        <time>2018-04-18T09:11:09Z</time>
      </trkpt>
      <trkpt lat="47.26104" lon="1.91139">
        <ele>94</ele>
        <time>2018-04-18T09:11:11Z</time>
      </trkpt>
      <trkpt lat="47.26119" lon="1.91093">
        <ele>94</ele>
        <time>2018-04-18T09:11:18Z</time>
      </trkpt>
      <trkpt lat="47.26121" lon="1.91087">
        <ele>94</ele>
        <time>2018-04-18T09:11:19Z</time>
      </trkpt>
      <trkpt lat="47.26156" lon="1.91025">
        <ele>92</ele>
        <time>2018-04-18T09:11:30Z</time>
      </trkpt>
      <trkpt lat="47.26193" lon="1.90965">
        <ele>93</ele>
        <time>2018-04-18T09:11:42Z</time>
      </trkpt>
      <trkpt lat="47.2622" lon="1.90923">
        <ele>93</ele>
        <time>2018-04-18T09:11:50Z</time>
      </trkpt>
      <trkpt lat="47.26235" lon="1.90896">
        <ele>93</ele>
        <time>2018-04-18T09:11:55Z</time>
      </trkpt>
      <trkpt lat="47.26254" lon="1.90855">
        <ele>94</ele>
        <time>2018-04-18T09:12:02Z</time>
      </trkpt>
      <trkpt lat="47.26261" lon="1.90838">
        <ele>94</ele>
        <time>2018-04-18T09:12:05Z</time>
      </trkpt>
      <trkpt lat="47.26277" lon="1.90798">
        <ele>94</ele>
        <time>2018-04-18T09:12:13Z</time>
      </trkpt>
      <trkpt lat="47.26304" lon="1.90725">
        <ele>94</ele>
        <time>2018-04-18T09:12:28Z</time>
      </trkpt>
      <trkpt lat="47.26307" lon="1.90716">
        <ele>94</ele>
        <time>2018-04-18T09:12:30Z</time>
      </trkpt>
      <trkpt lat="47.26312" lon="1.90701">
        <ele>94</ele>
        <time>2018-04-18T09:12:34Z</time>
      </trkpt>
      <trkpt lat="47.26271" lon="1.90662">
        <ele>93</ele>
        <time>2018-04-18T09:12:51Z</time>
      </trkpt>
      <trkpt lat="47.26248" lon="1.90648">
        <ele>92</ele>
        <time>2018-04-18T09:12:57Z</time>
      </trkpt>
      <trkpt lat="47.26241" lon="1.90638">
        <ele>92</ele>
        <time>2018-04-18T09:13:00Z</time>
      </trkpt>
      <trkpt lat="47.26241" lon="1.9063">
        <ele>92</ele>
        <time>2018-04-18T09:13:02Z</time>
      </trkpt>
      <trkpt lat="47.26275" lon="1.90566">
        <ele>92</ele>
        <time>2018-04-18T09:13:18Z</time>
      </trkpt>
      <trkpt lat="47.26302" lon="1.90504">
        <ele>92</ele>
        <time>2018-04-18T09:13:33Z</time>
      </trkpt>
      <trkpt lat="47.26349" lon="1.90478">
        <ele>95</ele>
        <time>2018-04-18T09:13:58Z</time>
      </trkpt>
      <trkpt lat="47.26349" lon="1.90475">
        <ele>95</ele>
        <time>2018-04-18T09:14:30Z</time>
      </trkpt>
      <trkpt lat="47.26349" lon="1.90475">
        <ele>95</ele>
        <time>2018-04-18T09:14:31Z</time>
      </trkpt>
      <trkpt lat="47.2635" lon="1.90476">
        <ele>95</ele>
        <time>2018-04-18T09:14:42Z</time>
      </trkpt>
      <trkpt lat="47.2635" lon="1.90476">
        <ele>95</ele>
        <time>2018-04-18T09:14:51Z</time>
      </trkpt>
      <trkpt lat="47.26349" lon="1.90477">
        <ele>95</ele>
        <time>2018-04-18T09:14:55Z</time>
      </trkpt>
      <trkpt lat="47.26349" lon="1.90477">
        <ele>95</ele>
        <time>2018-04-18T09:14:56Z</time>
      </trkpt>
      <trkpt lat="47.2635" lon="1.90477">
        <ele>95</ele>
        <time>2018-04-18T09:14:57Z</time>
      </trkpt>
      <trkpt lat="47.26351" lon="1.90472">
        <ele>95</ele>
        <time>2018-04-18T09:15:02Z</time>
      </trkpt>
      <trkpt lat="47.26354" lon="1.90465">
        <ele>96</ele>
        <time>2018-04-18T09:15:05Z</time>
      </trkpt>
      <trkpt lat="47.2637" lon="1.90392">
        <ele>94</ele>
        <time>2018-04-18T09:15:20Z</time>
      </trkpt>
      <trkpt lat="47.26381" lon="1.90365">
        <ele>94</ele>
        <time>2018-04-18T09:15:25Z</time>
      </trkpt>
      <trkpt lat="47.26392" lon="1.90346">
        <ele>94</ele>
        <time>2018-04-18T09:15:29Z</time>
      </trkpt>
      <trkpt lat="47.26406" lon="1.90325">
        <ele>93</ele>
        <time>2018-04-18T09:15:34Z</time>
      </trkpt>
      <trkpt lat="47.26416" lon="1.90315">
        <ele>93</ele>
        <time>2018-04-18T09:15:37Z</time>
      </trkpt>
      <trkpt lat="47.26439" lon="1.90297">
        <ele>95</ele>
        <time>2018-04-18T09:15:44Z</time>
      </trkpt>
      <trkpt lat="47.26486" lon="1.90255">
        <ele>95</ele>
        <time>2018-04-18T09:16:01Z</time>
      </trkpt>
      <trkpt lat="47.26493" lon="1.90244">
        <ele>94</ele>
        <time>2018-04-18T09:16:04Z</time>
      </trkpt>
      <trkpt lat="47.26518" lon="1.90172">
        <ele>96</ele>
        <time>2018-04-18T09:16:22Z</time>
      </trkpt>
      <trkpt lat="47.26521" lon="1.90092">
        <ele>96</ele>
        <time>2018-04-18T09:16:35Z</time>
      </trkpt>
      <trkpt lat="47.26519" lon="1.9001">
        <ele>96</ele>
        <time>2018-04-18T09:16:48Z</time>
      </trkpt>
      <trkpt lat="47.26524" lon="1.89945">
        <ele>95</ele>
        <time>2018-04-18T09:16:59Z</time>
      </trkpt>
      <trkpt lat="47.26525" lon="1.89923">
        <ele>95</ele>
        <time>2018-04-18T09:17:03Z</time>
      </trkpt>
      <trkpt lat="47.26528" lon="1.89898">
        <ele>95</ele>
        <time>2018-04-18T09:17:07Z</time>
      </trkpt>
      <trkpt lat="47.26529" lon="1.89892">
        <ele>95</ele>
        <time>2018-04-18T09:17:08Z</time>
      </trkpt>
      <trkpt lat="47.26531" lon="1.89879">
        <ele>95</ele>
        <time>2018-04-18T09:17:10Z</time>
      </trkpt>
      <trkpt lat="47.26537" lon="1.89841">
        <ele>96</ele>
        <time>2018-04-18T09:17:16Z</time>
      </trkpt>
      <trkpt lat="47.26541" lon="1.89785">
        <ele>96</ele>
        <time>2018-04-18T09:17:29Z</time>
      </trkpt>
      <trkpt lat="47.2654" lon="1.8978">
        <ele>96</ele>
        <time>2018-04-18T09:17:33Z</time>
      </trkpt>
      <trkpt lat="47.26537" lon="1.8976">
        <ele>96</ele>
        <time>2018-04-18T09:17:38Z</time>
      </trkpt>
      <trkpt lat="47.26545" lon="1.8971">
        <ele>95</ele>
        <time>2018-04-18T09:17:45Z</time>
      </trkpt>
      <trkpt lat="47.26554" lon="1.89627">
        <ele>93</ele>
        <time>2018-04-18T09:17:56Z</time>
      </trkpt>
      <trkpt lat="47.26555" lon="1.89612">
        <ele>93</ele>
        <time>2018-04-18T09:17:58Z</time>
      </trkpt>
      <trkpt lat="47.26559" lon="1.89583">
        <ele>93</ele>
        <time>2018-04-18T09:18:02Z</time>
      </trkpt>
      <trkpt lat="47.2656" lon="1.89564">
        <ele>93</ele>
        <time>2018-04-18T09:18:05Z</time>
      </trkpt>
      <trkpt lat="47.2657" lon="1.89484">
        <ele>91</ele>
        <time>2018-04-18T09:18:17Z</time>
      </trkpt>
      <trkpt lat="47.26576" lon="1.89444">
        <ele>91</ele>
        <time>2018-04-18T09:18:23Z</time>
      </trkpt>
      <trkpt lat="47.26583" lon="1.89383">
        <ele>91</ele>
        <time>2018-04-18T09:18:32Z</time>
      </trkpt>
      <trkpt lat="47.26584" lon="1.89369">
        <ele>91</ele>
        <time>2018-04-18T09:18:34Z</time>
      </trkpt>
      <trkpt lat="47.26586" lon="1.89356">
        <ele>91</ele>
        <time>2018-04-18T09:18:36Z</time>
      </trkpt>
      <trkpt lat="47.26598" lon="1.89271">
        <ele>90</ele>
        <time>2018-04-18T09:18:48Z</time>
      </trkpt>
      <trkpt lat="47.26605" lon="1.89222">
        <ele>89</ele>
        <time>2018-04-18T09:18:55Z</time>
      </trkpt>
      <trkpt lat="47.26613" lon="1.8916">
        <ele>90</ele>
        <time>2018-04-18T09:19:04Z</time>
      </trkpt>
      <trkpt lat="47.26617" lon="1.89132">
        <ele>91</ele>
        <time>2018-04-18T09:19:09Z</time>
      </trkpt>
      <trkpt lat="47.26624" lon="1.89071">
        <ele>91</ele>
        <time>2018-04-18T09:19:23Z</time>
      </trkpt>
      <trkpt lat="47.26626" lon="1.89049">
        <ele>91</ele>
        <time>2018-04-18T09:19:27Z</time>
      </trkpt>
      <trkpt lat="47.26626" lon="1.89043">
        <ele>91</ele>
        <time>2018-04-18T09:19:28Z</time>
      </trkpt>
      <trkpt lat="47.26634" lon="1.88964">
        <ele>91</ele>
        <time>2018-04-18T09:19:43Z</time>
      </trkpt>
      <trkpt lat="47.26642" lon="1.88905">
        <ele>92</ele>
        <time>2018-04-18T09:19:55Z</time>
      </trkpt>
      <trkpt lat="47.26649" lon="1.88854">
        <ele>93</ele>
        <time>2018-04-18T09:20:06Z</time>
      </trkpt>
      <trkpt lat="47.26652" lon="1.88835">
        <ele>94</ele>
        <time>2018-04-18T09:20:10Z</time>
      </trkpt>
      <trkpt lat="47.26654" lon="1.88825">
        <ele>94</ele>
        <time>2018-04-18T09:20:12Z</time>
      </trkpt>
      <trkpt lat="47.26654" lon="1.8882">
        <ele>94</ele>
        <time>2018-04-18T09:20:13Z</time>
      </trkpt>
      <trkpt lat="47.26658" lon="1.8879">
        <ele>94</ele>
        <time>2018-04-18T09:20:19Z</time>
      </trkpt>
      <trkpt lat="47.26665" lon="1.88741">
        <ele>94</ele>
        <time>2018-04-18T09:20:29Z</time>
      </trkpt>
      <trkpt lat="47.26676" lon="1.88665">
        <ele>95</ele>
        <time>2018-04-18T09:20:43Z</time>
      </trkpt>
      <trkpt lat="47.26681" lon="1.8862">
        <ele>94</ele>
        <time>2018-04-18T09:20:51Z</time>
      </trkpt>
      <trkpt lat="47.26683" lon="1.88599">
        <ele>94</ele>
        <time>2018-04-18T09:20:55Z</time>
      </trkpt>
      <trkpt lat="47.26688" lon="1.88547">
        <ele>93</ele>
        <time>2018-04-18T09:21:05Z</time>
      </trkpt>
      <trkpt lat="47.26701" lon="1.88467">
        <ele>93</ele>
        <time>2018-04-18T09:21:19Z</time>
      </trkpt>
      <trkpt lat="47.26706" lon="1.88419">
        <ele>93</ele>
        <time>2018-04-18T09:21:27Z</time>
      </trkpt>
      <trkpt lat="47.26712" lon="1.88371">
        <ele>93</ele>
        <time>2018-04-18T09:21:35Z</time>
      </trkpt>
      <trkpt lat="47.26715" lon="1.88343">
        <ele>93</ele>
        <time>2018-04-18T09:21:40Z</time>
      </trkpt>
      <trkpt lat="47.26718" lon="1.88316">
        <ele>94</ele>
        <time>2018-04-18T09:21:45Z</time>
      </trkpt>
      <trkpt lat="47.2672" lon="1.883">
        <ele>94</ele>
        <time>2018-04-18T09:21:48Z</time>
      </trkpt>
      <trkpt lat="47.26722" lon="1.88262">
        <ele>95</ele>
        <time>2018-04-18T09:21:54Z</time>
      </trkpt>
      <trkpt lat="47.26734" lon="1.88181">
        <ele>94</ele>
        <time>2018-04-18T09:22:07Z</time>
      </trkpt>
      <trkpt lat="47.26739" lon="1.88149">
        <ele>93</ele>
        <time>2018-04-18T09:22:18Z</time>
      </trkpt>
      <trkpt lat="47.26741" lon="1.88146">
        <ele>93</ele>
        <time>2018-04-18T09:22:20Z</time>
      </trkpt>
      <trkpt lat="47.26741" lon="1.88143">
        <ele>93</ele>
        <time>2018-04-18T09:22:28Z</time>
      </trkpt>
      <trkpt lat="47.26741" lon="1.88143">
        <ele>93</ele>
        <time>2018-04-18T09:22:31Z</time>
      </trkpt>
      <trkpt lat="47.26765" lon="1.8807">
        <ele>92</ele>
        <time>2018-04-18T09:23:08Z</time>
      </trkpt>
      <trkpt lat="47.26772" lon="1.8804">
        <ele>93</ele>
        <time>2018-04-18T09:23:15Z</time>
      </trkpt>
      <trkpt lat="47.26773" lon="1.88027">
        <ele>93</ele>
        <time>2018-04-18T09:23:18Z</time>
      </trkpt>
      <trkpt lat="47.26778" lon="1.8798">
        <ele>92</ele>
        <time>2018-04-18T09:23:28Z</time>
      </trkpt>
      <trkpt lat="47.26782" lon="1.87953">
        <ele>93</ele>
        <time>2018-04-18T09:23:34Z</time>
      </trkpt>
      <trkpt lat="47.26785" lon="1.87936">
        <ele>93</ele>
        <time>2018-04-18T09:23:38Z</time>
      </trkpt>
      <trkpt lat="47.26787" lon="1.87914">
        <ele>93</ele>
        <time>2018-04-18T09:23:43Z</time>
      </trkpt>
      <trkpt lat="47.26799" lon="1.87835">
        <ele>93</ele>
        <time>2018-04-18T09:24:00Z</time>
      </trkpt>
      <trkpt lat="47.26802" lon="1.87815">
        <ele>93</ele>
        <time>2018-04-18T09:24:04Z</time>
      </trkpt>
      <trkpt lat="47.26806" lon="1.87796">
        <ele>93</ele>
        <time>2018-04-18T09:24:08Z</time>
      </trkpt>
      <trkpt lat="47.26809" lon="1.87781">
        <ele>93</ele>
        <time>2018-04-18T09:24:11Z</time>
      </trkpt>
      <trkpt lat="47.26813" lon="1.87756">
        <ele>94</ele>
        <time>2018-04-18T09:24:16Z</time>
      </trkpt>
      <trkpt lat="47.26813" lon="1.87751">
        <ele>94</ele>
        <time>2018-04-18T09:24:17Z</time>
      </trkpt>
      <trkpt lat="47.26814" lon="1.87741">
        <ele>94</ele>
        <time>2018-04-18T09:24:19Z</time>
      </trkpt>
      <trkpt lat="47.26822" lon="1.87676">
        <ele>94</ele>
        <time>2018-04-18T09:24:33Z</time>
      </trkpt>
      <trkpt lat="47.26826" lon="1.87652">
        <ele>93</ele>
        <time>2018-04-18T09:24:39Z</time>
      </trkpt>
      <trkpt lat="47.26826" lon="1.87648">
        <ele>93</ele>
        <time>2018-04-18T09:24:40Z</time>
      </trkpt>
      <trkpt lat="47.26836" lon="1.87567">
        <ele>94</ele>
        <time>2018-04-18T09:24:58Z</time>
      </trkpt>
      <trkpt lat="47.26836" lon="1.87505">
        <ele>93</ele>
        <time>2018-04-18T09:25:11Z</time>
      </trkpt>
      <trkpt lat="47.26841" lon="1.87426">
        <ele>93</ele>
        <time>2018-04-18T09:25:30Z</time>
      </trkpt>
      <trkpt lat="47.26841" lon="1.87414">
        <ele>92</ele>
        <time>2018-04-18T09:25:33Z</time>
      </trkpt>
      <trkpt lat="47.26847" lon="1.87338">
        <ele>93</ele>
        <time>2018-04-18T09:25:50Z</time>
      </trkpt>
      <trkpt lat="47.26848" lon="1.8732">
        <ele>94</ele>
        <time>2018-04-18T09:25:54Z</time>
      </trkpt>
      <trkpt lat="47.26849" lon="1.87311">
        <ele>94</ele>
        <time>2018-04-18T09:25:56Z</time>
      </trkpt>
      <trkpt lat="47.2685" lon="1.8729">
        <ele>94</ele>
        <time>2018-04-18T09:26:01Z</time>
      </trkpt>
      <trkpt lat="47.2685" lon="1.87207">
        <ele>94</ele>
        <time>2018-04-18T09:26:18Z</time>
      </trkpt>
      <trkpt lat="47.26851" lon="1.87127">
        <ele>94</ele>
        <time>2018-04-18T09:26:35Z</time>
      </trkpt>
      <trkpt lat="47.26847" lon="1.87083">
        <ele>92</ele>
        <time>2018-04-18T09:26:49Z</time>
      </trkpt>
      <trkpt lat="47.26846" lon="1.87071">
        <ele>92</ele>
        <time>2018-04-18T09:26:55Z</time>
      </trkpt>
      <trkpt lat="47.26845" lon="1.8706">
        <ele>93</ele>
        <time>2018-04-18T09:26:58Z</time>
      </trkpt>
      <trkpt lat="47.26844" lon="1.87056">
        <ele>93</ele>
        <time>2018-04-18T09:26:59Z</time>
      </trkpt>
      <trkpt lat="47.26844" lon="1.87053">
        <ele>93</ele>
        <time>2018-04-18T09:27:00Z</time>
      </trkpt>
      <trkpt lat="47.26836" lon="1.87031">
        <ele>93</ele>
        <time>2018-04-18T09:27:14Z</time>
      </trkpt>
      <trkpt lat="47.26836" lon="1.87026">
        <ele>93</ele>
        <time>2018-04-18T09:27:17Z</time>
      </trkpt>
      <trkpt lat="47.26835" lon="1.87014">
        <ele>92</ele>
        <time>2018-04-18T09:27:21Z</time>
      </trkpt>
      <trkpt lat="47.26833" lon="1.87003">
        <ele>90</ele>
        <time>2018-04-18T09:27:24Z</time>
      </trkpt>
      <trkpt lat="47.2683" lon="1.86989">
        <ele>90</ele>
        <time>2018-04-18T09:27:29Z</time>
      </trkpt>
      <trkpt lat="47.26833" lon="1.86983">
        <ele>90</ele>
        <time>2018-04-18T09:27:32Z</time>
      </trkpt>
      <trkpt lat="47.26834" lon="1.86982">
        <ele>92</ele>
        <time>2018-04-18T09:27:33Z</time>
      </trkpt>
      <trkpt lat="47.26838" lon="1.8698">
        <ele>93</ele>
        <time>2018-04-18T09:27:35Z</time>
      </trkpt>
      <trkpt lat="47.26842" lon="1.86977">
        <ele>93</ele>
        <time>2018-04-18T09:27:37Z</time>
      </trkpt>
      <trkpt lat="47.26842" lon="1.86953">
        <ele>93</ele>
        <time>2018-04-18T09:27:43Z</time>
      </trkpt>
      <trkpt lat="47.26837" lon="1.86915">
        <ele>91</ele>
        <time>2018-04-18T09:27:49Z</time>
      </trkpt>
      <trkpt lat="47.26835" lon="1.86897">
        <ele>93</ele>
        <time>2018-04-18T09:27:52Z</time>
      </trkpt>
      <trkpt lat="47.26831" lon="1.86875">
        <ele>90</ele>
        <time>2018-04-18T09:27:56Z</time>
      </trkpt>
      <trkpt lat="47.2683" lon="1.8683">
        <ele>90</ele>
        <time>2018-04-18T09:28:07Z</time>
      </trkpt>
      <trkpt lat="47.2683" lon="1.86818">
        <ele>90</ele>
        <time>2018-04-18T09:28:10Z</time>
      </trkpt>
      <trkpt lat="47.26835" lon="1.86784">
        <ele>92</ele>
        <time>2018-04-18T09:28:19Z</time>
      </trkpt>
      <trkpt lat="47.2684" lon="1.8675">
        <ele>91</ele>
        <time>2018-04-18T09:28:28Z</time>
      </trkpt>
      <trkpt lat="47.26842" lon="1.86735">
        <ele>91</ele>
        <time>2018-04-18T09:28:32Z</time>
      </trkpt>
      <trkpt lat="47.26845" lon="1.86721">
        <ele>92</ele>
        <time>2018-04-18T09:28:36Z</time>
      </trkpt>
      <trkpt lat="47.26848" lon="1.86707">
        <ele>92</ele>
        <time>2018-04-18T09:28:45Z</time>
      </trkpt>
      <trkpt lat="47.26854" lon="1.86677">
        <ele>92</ele>
        <time>2018-04-18T09:29:26Z</time>
      </trkpt>
      <trkpt lat="47.26862" lon="1.86639">
        <ele>93</ele>
        <time>2018-04-18T09:29:37Z</time>
      </trkpt>
      <trkpt lat="47.26865" lon="1.86625">
        <ele>93</ele>
        <time>2018-04-18T09:29:41Z</time>
      </trkpt>
      <trkpt lat="47.26866" lon="1.86623">
        <ele>93</ele>
        <time>2018-04-18T09:29:42Z</time>
      </trkpt>
      <trkpt lat="47.26867" lon="1.8662">
        <ele>93</ele>
        <time>2018-04-18T09:29:43Z</time>
      </trkpt>
      <trkpt lat="47.26869" lon="1.86613">
        <ele>93</ele>
        <time>2018-04-18T09:29:46Z</time>
      </trkpt>
      <trkpt lat="47.26878" lon="1.86583">
        <ele>92</ele>
        <time>2018-04-18T09:30:03Z</time>
      </trkpt>
      <trkpt lat="47.26876" lon="1.86584">
        <ele>93</ele>
        <time>2018-04-18T09:30:21Z</time>
      </trkpt>
      <trkpt lat="47.26876" lon="1.86584">
        <ele>93</ele>
        <time>2018-04-18T09:30:26Z</time>
      </trkpt>
      <trkpt lat="47.26876" lon="1.86585">
        <ele>93</ele>
        <time>2018-04-18T09:30:39Z</time>
      </trkpt>
      <trkpt lat="47.26876" lon="1.86586">
        <ele>93</ele>
        <time>2018-04-18T09:30:49Z</time>
      </trkpt>
      <trkpt lat="47.26877" lon="1.86586">
        <ele>93</ele>
        <time>2018-04-18T09:31:07Z</time>
      </trkpt>
      <trkpt lat="47.26877" lon="1.86586">
        <ele>93</ele>
        <time>2018-04-18T09:31:16Z</time>
      </trkpt>
      <trkpt lat="47.26876" lon="1.86585">
        <ele>93</ele>
        <time>2018-04-18T09:31:19Z</time>
      </trkpt>
      <trkpt lat="47.26876" lon="1.86585">
        <ele>93</ele>
        <time>2018-04-18T09:31:20Z</time>
      </trkpt>
      <trkpt lat="47.26876" lon="1.86585">
        <ele>93</ele>
        <time>2018-04-18T09:31:22Z</time>
      </trkpt>
      <trkpt lat="47.26874" lon="1.86582">
        <ele>92</ele>
        <time>2018-04-18T09:32:03Z</time>
      </trkpt>
      <trkpt lat="47.26874" lon="1.86582">
        <ele>92</ele>
        <time>2018-04-18T09:32:05Z</time>
      </trkpt>
      <trkpt lat="47.26881" lon="1.8658">
        <ele>93</ele>
        <time>2018-04-18T09:32:19Z</time>
      </trkpt>
      <trkpt lat="47.26889" lon="1.86583">
        <ele>93</ele>
        <time>2018-04-18T09:32:24Z</time>
      </trkpt>
      <trkpt lat="47.26892" lon="1.86587">
        <ele>94</ele>
        <time>2018-04-18T09:32:28Z</time>
      </trkpt>
      <trkpt lat="47.2689" lon="1.86603">
        <ele>93</ele>
        <time>2018-04-18T09:32:33Z</time>
      </trkpt>
      <trkpt lat="47.26887" lon="1.86612">
        <ele>93</ele>
        <time>2018-04-18T09:32:35Z</time>
      </trkpt>
      <trkpt lat="47.26886" lon="1.86617">
        <ele>93</ele>
        <time>2018-04-18T09:32:36Z</time>
      </trkpt>
      <trkpt lat="47.26878" lon="1.86646">
        <ele>93</ele>
        <time>2018-04-18T09:32:42Z</time>
      </trkpt>
      <trkpt lat="47.26876" lon="1.86655">
        <ele>93</ele>
        <time>2018-04-18T09:32:44Z</time>
      </trkpt>
      <trkpt lat="47.26874" lon="1.86664">
        <ele>93</ele>
        <time>2018-04-18T09:32:46Z</time>
      </trkpt>
      <trkpt lat="47.26873" lon="1.86669">
        <ele>93</ele>
        <time>2018-04-18T09:32:47Z</time>
      </trkpt>
      <trkpt lat="47.26873" lon="1.86673">
        <ele>93</ele>
        <time>2018-04-18T09:32:48Z</time>
      </trkpt>
      <trkpt lat="47.26873" lon="1.86676">
        <ele>93</ele>
        <time>2018-04-18T09:32:49Z</time>
      </trkpt>
      <trkpt lat="47.2687" lon="1.86686">
        <ele>93</ele>
        <time>2018-04-18T09:32:53Z</time>
      </trkpt>
      <trkpt lat="47.26867" lon="1.86692">
        <ele>93</ele>
        <time>2018-04-18T09:33:00Z</time>
      </trkpt>
      <trkpt lat="47.26867" lon="1.86693">
        <ele>93</ele>
        <time>2018-04-18T09:33:04Z</time>
      </trkpt>
      <trkpt lat="47.26867" lon="1.86698">
        <ele>93</ele>
        <time>2018-04-18T09:33:11Z</time>
      </trkpt>
      <trkpt lat="47.26864" lon="1.86711">
        <ele>93</ele>
        <time>2018-04-18T09:33:15Z</time>
      </trkpt>
      <trkpt lat="47.26875" lon="1.86765">
        <ele>93</ele>
        <time>2018-04-18T09:33:32Z</time>
      </trkpt>
      <trkpt lat="47.26896" lon="1.86733">
        <ele>94</ele>
        <time>2018-04-18T09:33:50Z</time>
      </trkpt>
      <trkpt lat="47.26902" lon="1.86728">
        <ele>94</ele>
        <time>2018-04-18T09:33:56Z</time>
      </trkpt>
      <trkpt lat="47.26905" lon="1.86727">
        <ele>94</ele>
        <time>2018-04-18T09:33:59Z</time>
      </trkpt>
      <trkpt lat="47.26912" lon="1.86717">
        <ele>94</ele>
        <time>2018-04-18T09:34:11Z</time>
      </trkpt>
      <trkpt lat="47.2692" lon="1.86676">
        <ele>97</ele>
        <time>2018-04-18T09:34:25Z</time>
      </trkpt>
      <trkpt lat="47.2692" lon="1.86671">
        <ele>97</ele>
        <time>2018-04-18T09:34:28Z</time>
      </trkpt>
      <trkpt lat="47.26922" lon="1.86666">
        <ele>96</ele>
        <time>2018-04-18T09:34:32Z</time>
      </trkpt>
      <trkpt lat="47.26936" lon="1.86666">
        <ele>97</ele>
        <time>2018-04-18T09:34:41Z</time>
      </trkpt>
      <trkpt lat="47.26938" lon="1.86667">
        <ele>98</ele>
        <time>2018-04-18T09:34:44Z</time>
      </trkpt>
      <trkpt lat="47.26939" lon="1.86665">
        <ele>97</ele>
        <time>2018-04-18T09:34:48Z</time>
      </trkpt>
      <trkpt lat="47.26941" lon="1.86658">
        <ele>97</ele>
        <time>2018-04-18T09:34:51Z</time>
      </trkpt>
      <trkpt lat="47.26949" lon="1.86637">
        <ele>98</ele>
        <time>2018-04-18T09:35:01Z</time>
      </trkpt>
      <trkpt lat="47.26948" lon="1.86631">
        <ele>98</ele>
        <time>2018-04-18T09:35:05Z</time>
      </trkpt>
      <trkpt lat="47.26927" lon="1.866">
        <ele>96</ele>
        <time>2018-04-18T09:35:15Z</time>
      </trkpt>
      <trkpt lat="47.26947" lon="1.86561">
        <ele>96</ele>
        <time>2018-04-18T09:35:28Z</time>
      </trkpt>
      <trkpt lat="47.26952" lon="1.86552">
        <ele>96</ele>
        <time>2018-04-18T09:35:32Z</time>
      </trkpt>
      <trkpt lat="47.26961" lon="1.86545">
        <ele>96</ele>
        <time>2018-04-18T09:35:40Z</time>
      </trkpt>
      <trkpt lat="47.26981" lon="1.8656">
        <ele>97</ele>
        <time>2018-04-18T09:35:58Z</time>
      </trkpt>
      <trkpt lat="47.26988" lon="1.86557">
        <ele>97</ele>
        <time>2018-04-18T09:36:11Z</time>
      </trkpt>
      <trkpt lat="47.26991" lon="1.86555">
        <ele>97</ele>
        <time>2018-04-18T09:36:16Z</time>
      </trkpt>
      <trkpt lat="47.26996" lon="1.86556">
        <ele>97</ele>
        <time>2018-04-18T09:36:18Z</time>
      </trkpt>
      <trkpt lat="47.27002" lon="1.86559">
        <ele>100</ele>
        <time>2018-04-18T09:36:19Z</time>
      </trkpt>
      <trkpt lat="47.27005" lon="1.86559">
        <ele>100</ele>
        <time>2018-04-18T09:36:21Z</time>
      </trkpt>
      <trkpt lat="47.27006" lon="1.86558">
        <ele>100</ele>
        <time>2018-04-18T09:36:22Z</time>
      </trkpt>
      <trkpt lat="47.27006" lon="1.86559">
        <ele>100</ele>
        <time>2018-04-18T09:36:23Z</time>
      </trkpt>
      <trkpt lat="47.27007" lon="1.86559">
        <ele>100</ele>
        <time>2018-04-18T09:36:24Z</time>
      </trkpt>
      <trkpt lat="47.2701" lon="1.86561">
        <ele>100</ele>
        <time>2018-04-18T09:36:28Z</time>
      </trkpt>
      <trkpt lat="47.27012" lon="1.86559">
        <ele>100</ele>
        <time>2018-04-18T09:36:30Z</time>
      </trkpt>
      <trkpt lat="47.27016" lon="1.86556">
        <ele>101</ele>
        <time>2018-04-18T09:36:44Z</time>
      </trkpt>
      <trkpt lat="47.27017" lon="1.86556">
        <ele>101</ele>
        <time>2018-04-18T09:36:49Z</time>
      </trkpt>
      <trkpt lat="47.27017" lon="1.86556">
        <ele>101</ele>
        <time>2018-04-18T09:36:51Z</time>
      </trkpt>
      <trkpt lat="47.27017" lon="1.86556">
        <ele>101</ele>
        <time>2018-04-18T09:36:55Z</time>
      </trkpt>
      <trkpt lat="47.27017" lon="1.86557">
        <ele>101</ele>
        <time>2018-04-18T09:37:01Z</time>
      </trkpt>
      <trkpt lat="47.27019" lon="1.86558">
        <ele>101</ele>
        <time>2018-04-18T09:37:15Z</time>
      </trkpt>
      <trkpt lat="47.27017" lon="1.86561">
        <ele>101</ele>
        <time>2018-04-18T09:37:24Z</time>
      </trkpt>
      <trkpt lat="47.27012" lon="1.86563">
        <ele>100</ele>
        <time>2018-04-18T09:37:31Z</time>
      </trkpt>
      <trkpt lat="47.27004" lon="1.86564">
        <ele>100</ele>
        <time>2018-04-18T09:37:39Z</time>
      </trkpt>
      <trkpt lat="47.27003" lon="1.86565">
        <ele>100</ele>
        <time>2018-04-18T09:37:40Z</time>
      </trkpt>
      <trkpt lat="47.27001" lon="1.86568">
        <ele>100</ele>
        <time>2018-04-18T09:37:42Z</time>
      </trkpt>
      <trkpt lat="47.26998" lon="1.86572">
        <ele>98</ele>
        <time>2018-04-18T09:37:48Z</time>
      </trkpt>
      <trkpt lat="47.26998" lon="1.86572">
        <ele>98</ele>
        <time>2018-04-18T09:37:50Z</time>
      </trkpt>
      <trkpt lat="47.26999" lon="1.8657">
        <ele>98</ele>
        <time>2018-04-18T09:38:03Z</time>
      </trkpt>
      <trkpt lat="47.26999" lon="1.86571">
        <ele>98</ele>
        <time>2018-04-18T09:38:10Z</time>
      </trkpt>
      <trkpt lat="47.27" lon="1.86572">
        <ele>100</ele>
        <time>2018-04-18T09:38:13Z</time>
      </trkpt>
      <trkpt lat="47.27" lon="1.86571">
        <ele>100</ele>
        <time>2018-04-18T09:38:16Z</time>
      </trkpt>
      <trkpt lat="47.27" lon="1.86571">
        <ele>100</ele>
        <time>2018-04-18T09:38:17Z</time>
      </trkpt>
      <trkpt lat="47.27" lon="1.86571">
        <ele>100</ele>
        <time>2018-04-18T09:38:18Z</time>
      </trkpt>
      <trkpt lat="47.26994" lon="1.86567">
        <ele>97</ele>
        <time>2018-04-18T09:38:39Z</time>
      </trkpt>
      <trkpt lat="47.26995" lon="1.86566">
        <ele>97</ele>
        <time>2018-04-18T09:38:46Z</time>
      </trkpt>
      <trkpt lat="47.26996" lon="1.86563">
        <ele>97</ele>
        <time>2018-04-18T09:39:04Z</time>
      </trkpt>
      <trkpt lat="47.26995" lon="1.86562">
        <ele>97</ele>
        <time>2018-04-18T09:39:06Z</time>
      </trkpt>
      <trkpt lat="47.26994" lon="1.86563">
        <ele>97</ele>
        <time>2018-04-18T09:39:19Z</time>
      </trkpt>
      <trkpt lat="47.26993" lon="1.86563">
        <ele>97</ele>
        <time>2018-04-18T09:39:21Z</time>
      </trkpt>
      <trkpt lat="47.26993" lon="1.86563">
        <ele>97</ele>
        <time>2018-04-18T09:39:22Z</time>
      </trkpt>
      <trkpt lat="47.26994" lon="1.86563">
        <ele>97</ele>
        <time>2018-04-18T09:39:43Z</time>
      </trkpt>
      <trkpt lat="47.26991" lon="1.86564">
        <ele>97</ele>
        <time>2018-04-18T09:39:59Z</time>
      </trkpt>
      <trkpt lat="47.26991" lon="1.86564">
        <ele>97</ele>
        <time>2018-04-18T09:40:09Z</time>
      </trkpt>
      <trkpt lat="47.26993" lon="1.86566">
        <ele>97</ele>
        <time>2018-04-18T09:40:31Z</time>
      </trkpt>
      <trkpt lat="47.26996" lon="1.86566">
        <ele>97</ele>
        <time>2018-04-18T09:40:43Z</time>
      </trkpt>
      <trkpt lat="47.26996" lon="1.86566">
        <ele>97</ele>
        <time>2018-04-18T09:40:44Z</time>
      </trkpt>
      <trkpt lat="47.26999" lon="1.86569">
        <ele>98</ele>
        <time>2018-04-18T09:40:56Z</time>
      </trkpt>
      <trkpt lat="47.26999" lon="1.86569">
        <ele>98</ele>
        <time>2018-04-18T09:40:57Z</time>
      </trkpt>
      <trkpt lat="47.26998" lon="1.86569">
        <ele>98</ele>
        <time>2018-04-18T09:40:58Z</time>
      </trkpt>
      <trkpt lat="47.26996" lon="1.86566">
        <ele>97</ele>
        <time>2018-04-18T09:41:10Z</time>
      </trkpt>
      <trkpt lat="47.26995" lon="1.86566">
        <ele>97</ele>
        <time>2018-04-18T09:41:12Z</time>
      </trkpt>
      <trkpt lat="47.26994" lon="1.86566">
        <ele>97</ele>
        <time>2018-04-18T09:41:14Z</time>
      </trkpt>
      <trkpt lat="47.26994" lon="1.86566">
        <ele>97</ele>
        <time>2018-04-18T09:41:15Z</time>
      </trkpt>
      <trkpt lat="47.26992" lon="1.86565">
        <ele>97</ele>
        <time>2018-04-18T09:41:23Z</time>
      </trkpt>
      <trkpt lat="47.26992" lon="1.86565">
        <ele>97</ele>
        <time>2018-04-18T09:41:24Z</time>
      </trkpt>
      <trkpt lat="47.26992" lon="1.86565">
        <ele>97</ele>
        <time>2018-04-18T09:41:25Z</time>
      </trkpt>
      <trkpt lat="47.26992" lon="1.86564">
        <ele>97</ele>
        <time>2018-04-18T09:41:26Z</time>
      </trkpt>
      <trkpt lat="47.26992" lon="1.86564">
        <ele>97</ele>
        <time>2018-04-18T09:41:29Z</time>
      </trkpt>
      <trkpt lat="47.26992" lon="1.86562">
        <ele>97</ele>
        <time>2018-04-18T09:41:38Z</time>
      </trkpt>
      <trkpt lat="47.26991" lon="1.8656">
        <ele>97</ele>
        <time>2018-04-18T09:41:45Z</time>
      </trkpt>
      <trkpt lat="47.2699" lon="1.86559">
        <ele>97</ele>
        <time>2018-04-18T09:41:51Z</time>
      </trkpt>
      <trkpt lat="47.26989" lon="1.86558">
        <ele>97</ele>
        <time>2018-04-18T09:42:01Z</time>
      </trkpt>
      <trkpt lat="47.26989" lon="1.86557">
        <ele>97</ele>
        <time>2018-04-18T09:42:46Z</time>
      </trkpt>
      <trkpt lat="47.26992" lon="1.86561">
        <ele>97</ele>
        <time>2018-04-18T09:43:06Z</time>
      </trkpt>
      <trkpt lat="47.26994" lon="1.86564">
        <ele>97</ele>
        <time>2018-04-18T09:43:16Z</time>
      </trkpt>
      <trkpt lat="47.26998" lon="1.86563">
        <ele>97</ele>
        <time>2018-04-18T09:44:10Z</time>
      </trkpt>
      <trkpt lat="47.26999" lon="1.86564">
        <ele>97</ele>
        <time>2018-04-18T09:44:13Z</time>
      </trkpt>
      <trkpt lat="47.27" lon="1.86564">
        <ele>100</ele>
        <time>2018-04-18T09:44:16Z</time>
      </trkpt>
      <trkpt lat="47.27001" lon="1.86566">
        <ele>100</ele>
        <time>2018-04-18T09:44:22Z</time>
      </trkpt>
      <trkpt lat="47.27002" lon="1.86567">
        <ele>100</ele>
        <time>2018-04-18T09:44:28Z</time>
      </trkpt>
      <trkpt lat="47.27003" lon="1.86568">
        <ele>100</ele>
        <time>2018-04-18T09:44:31Z</time>
      </trkpt>
      <trkpt lat="47.27003" lon="1.8657">
        <ele>100</ele>
        <time>2018-04-18T09:44:38Z</time>
      </trkpt>
      <trkpt lat="47.27003" lon="1.8657">
        <ele>100</ele>
        <time>2018-04-18T09:44:40Z</time>
      </trkpt>
      <trkpt lat="47.27" lon="1.86572">
        <ele>100</ele>
        <time>2018-04-18T09:44:53Z</time>
      </trkpt>
      <trkpt lat="47.27" lon="1.86573">
        <ele>100</ele>
        <time>2018-04-18T09:44:55Z</time>
      </trkpt>
      <trkpt lat="47.27" lon="1.86573">
        <ele>100</ele>
        <time>2018-04-18T09:44:56Z</time>
      </trkpt>
      <trkpt lat="47.26999" lon="1.86573">
        <ele>98</ele>
        <time>2018-04-18T09:45:00Z</time>
      </trkpt>
      <trkpt lat="47.26992" lon="1.86565">
        <ele>97</ele>
        <time>2018-04-18T09:45:22Z</time>
      </trkpt>
      <trkpt lat="47.26992" lon="1.86563">
        <ele>97</ele>
        <time>2018-04-18T09:45:29Z</time>
      </trkpt>
      <trkpt lat="47.26989" lon="1.86559">
        <ele>97</ele>
        <time>2018-04-18T09:45:56Z</time>
      </trkpt>
      <trkpt lat="47.26986" lon="1.86558">
        <ele>97</ele>
        <time>2018-04-18T09:46:30Z</time>
      </trkpt>
      <trkpt lat="47.26986" lon="1.86557">
        <ele>97</ele>
        <time>2018-04-18T09:46:37Z</time>
      </trkpt>
      <trkpt lat="47.26987" lon="1.86557">
        <ele>97</ele>
        <time>2018-04-18T09:46:41Z</time>
      </trkpt>
      <trkpt lat="47.26987" lon="1.86557">
        <ele>97</ele>
        <time>2018-04-18T09:46:49Z</time>
      </trkpt>
      <trkpt lat="47.26987" lon="1.86557">
        <ele>97</ele>
        <time>2018-04-18T09:46:54Z</time>
      </trkpt>
      <trkpt lat="47.26987" lon="1.86558">
        <ele>97</ele>
        <time>2018-04-18T09:46:57Z</time>
      </trkpt>
      <trkpt lat="47.26987" lon="1.86558">
        <ele>97</ele>
        <time>2018-04-18T09:46:59Z</time>
      </trkpt>
      <trkpt lat="47.26987" lon="1.86557">
        <ele>97</ele>
        <time>2018-04-18T09:47:16Z</time>
      </trkpt>
      <trkpt lat="47.26987" lon="1.86557">
        <ele>97</ele>
        <time>2018-04-18T09:47:18Z</time>
      </trkpt>
      <trkpt lat="47.26985" lon="1.86552">
        <ele>97</ele>
        <time>2018-04-18T09:47:41Z</time>
      </trkpt>
      <trkpt lat="47.26986" lon="1.86552">
        <ele>97</ele>
        <time>2018-04-18T09:47:42Z</time>
      </trkpt>
      <trkpt lat="47.26985" lon="1.86551">
        <ele>97</ele>
        <time>2018-04-18T09:47:43Z</time>
      </trkpt>
      <trkpt lat="47.26985" lon="1.86551">
        <ele>97</ele>
        <time>2018-04-18T09:47:44Z</time>
      </trkpt>
      <trkpt lat="47.26985" lon="1.86551">
        <ele>97</ele>
        <time>2018-04-18T09:47:45Z</time>
      </trkpt>
      <trkpt lat="47.26985" lon="1.86551">
        <ele>97</ele>
        <time>2018-04-18T09:47:46Z</time>
      </trkpt>
      <trkpt lat="47.26986" lon="1.86553">
        <ele>97</ele>
        <time>2018-04-18T09:47:49Z</time>
      </trkpt>
      <trkpt lat="47.26986" lon="1.86553">
        <ele>97</ele>
        <time>2018-04-18T09:47:54Z</time>
      </trkpt>
      <trkpt lat="47.26986" lon="1.86553">
        <ele>97</ele>
        <time>2018-04-18T09:47:55Z</time>
      </trkpt>
      <trkpt lat="47.26986" lon="1.86554">
        <ele>97</ele>
        <time>2018-04-18T09:47:56Z</time>
      </trkpt>
      <trkpt lat="47.26987" lon="1.86555">
        <ele>97</ele>
        <time>2018-04-18T09:47:58Z</time>
      </trkpt>
      <trkpt lat="47.26988" lon="1.86556">
        <ele>97</ele>
        <time>2018-04-18T09:48:00Z</time>
      </trkpt>
      <trkpt lat="47.26988" lon="1.86556">
        <ele>97</ele>
        <time>2018-04-18T09:48:01Z</time>
      </trkpt>
      <trkpt lat="47.26989" lon="1.86557">
        <ele>97</ele>
        <time>2018-04-18T09:48:04Z</time>
      </trkpt>
      <trkpt lat="47.26991" lon="1.86561">
        <ele>97</ele>
        <time>2018-04-18T09:48:12Z</time>
      </trkpt>
      <trkpt lat="47.26992" lon="1.86561">
        <ele>97</ele>
        <time>2018-04-18T09:48:22Z</time>
      </trkpt>
      <trkpt lat="47.26992" lon="1.86563">
        <ele>97</ele>
        <time>2018-04-18T09:48:28Z</time>
      </trkpt>
      <trkpt lat="47.26992" lon="1.86564">
        <ele>97</ele>
        <time>2018-04-18T09:48:33Z</time>
      </trkpt>
      <trkpt lat="47.26993" lon="1.86564">
        <ele>97</ele>
        <time>2018-04-18T09:48:34Z</time>
      </trkpt>
      <trkpt lat="47.26993" lon="1.86564">
        <ele>97</ele>
        <time>2018-04-18T09:48:35Z</time>
      </trkpt>
      <trkpt lat="47.26993" lon="1.86564">
        <ele>97</ele>
        <time>2018-04-18T09:48:36Z</time>
      </trkpt>
      <trkpt lat="47.26993" lon="1.86565">
        <ele>97</ele>
        <time>2018-04-18T09:48:37Z</time>
      </trkpt>
      <trkpt lat="47.26993" lon="1.86565">
        <ele>97</ele>
        <time>2018-04-18T09:48:39Z</time>
      </trkpt>
      <trkpt lat="47.26993" lon="1.86571">
        <ele>98</ele>
        <time>2018-04-18T09:48:47Z</time>
      </trkpt>
      <trkpt lat="47.26994" lon="1.86571">
        <ele>98</ele>
        <time>2018-04-18T09:48:48Z</time>
      </trkpt>
      <trkpt lat="47.26994" lon="1.86571">
        <ele>98</ele>
        <time>2018-04-18T09:48:49Z</time>
      </trkpt>
      <trkpt lat="47.26994" lon="1.86571">
        <ele>98</ele>
        <time>2018-04-18T09:48:50Z</time>
      </trkpt>
      <trkpt lat="47.26994" lon="1.86572">
        <ele>98</ele>
        <time>2018-04-18T09:48:51Z</time>
      </trkpt>
      <trkpt lat="47.26995" lon="1.86572">
        <ele>98</ele>
        <time>2018-04-18T09:48:52Z</time>
      </trkpt>
      <trkpt lat="47.26995" lon="1.86573">
        <ele>98</ele>
        <time>2018-04-18T09:48:53Z</time>
      </trkpt>
      <trkpt lat="47.26995" lon="1.86573">
        <ele>98</ele>
        <time>2018-04-18T09:48:54Z</time>
      </trkpt>
      <trkpt lat="47.26995" lon="1.86573">
        <ele>98</ele>
        <time>2018-04-18T09:48:55Z</time>
      </trkpt>
      <trkpt lat="47.26995" lon="1.86573">
        <ele>98</ele>
        <time>2018-04-18T09:48:57Z</time>
      </trkpt>
      <trkpt lat="47.26995" lon="1.86574">
        <ele>98</ele>
        <time>2018-04-18T09:48:59Z</time>
      </trkpt>
      <trkpt lat="47.26994" lon="1.86572">
        <ele>98</ele>
        <time>2018-04-18T09:49:01Z</time>
      </trkpt>
      <trkpt lat="47.26994" lon="1.86572">
        <ele>98</ele>
        <time>2018-04-18T09:49:02Z</time>
      </trkpt>
      <trkpt lat="47.26995" lon="1.86572">
        <ele>98</ele>
        <time>2018-04-18T09:49:03Z</time>
      </trkpt>
      <trkpt lat="47.26995" lon="1.86571">
        <ele>98</ele>
        <time>2018-04-18T09:49:04Z</time>
      </trkpt>
      <trkpt lat="47.26996" lon="1.8657">
        <ele>98</ele>
        <time>2018-04-18T09:49:07Z</time>
      </trkpt>
      <trkpt lat="47.26996" lon="1.8657">
        <ele>98</ele>
        <time>2018-04-18T09:49:11Z</time>
      </trkpt>
      <trkpt lat="47.26996" lon="1.8657">
        <ele>98</ele>
        <time>2018-04-18T09:49:13Z</time>
      </trkpt>
      <trkpt lat="47.26996" lon="1.8657">
        <ele>98</ele>
        <time>2018-04-18T09:49:14Z</time>
      </trkpt>
      <trkpt lat="47.26997" lon="1.8657">
        <ele>98</ele>
        <time>2018-04-18T09:49:15Z</time>
      </trkpt>
      <trkpt lat="47.26997" lon="1.8657">
        <ele>98</ele>
        <time>2018-04-18T09:49:16Z</time>
      </trkpt>
      <trkpt lat="47.26997" lon="1.8657">
        <ele>98</ele>
        <time>2018-04-18T09:49:17Z</time>
      </trkpt>
      <trkpt lat="47.26997" lon="1.8657">
        <ele>98</ele>
        <time>2018-04-18T09:49:23Z</time>
      </trkpt>
      <trkpt lat="47.26997" lon="1.8657">
        <ele>98</ele>
        <time>2018-04-18T09:49:24Z</time>
      </trkpt>
      <trkpt lat="47.26997" lon="1.8657">
        <ele>98</ele>
        <time>2018-04-18T09:49:39Z</time>
      </trkpt>
      <trkpt lat="47.26997" lon="1.8657">
        <ele>98</ele>
        <time>2018-04-18T09:49:40Z</time>
      </trkpt>
      <trkpt lat="47.26997" lon="1.8657">
        <ele>98</ele>
        <time>2018-04-18T09:49:42Z</time>
      </trkpt>
      <trkpt lat="47.26997" lon="1.8657">
        <ele>98</ele>
        <time>2018-04-18T09:49:43Z</time>
      </trkpt>
      <trkpt lat="47.26997" lon="1.8657">
        <ele>98</ele>
        <time>2018-04-18T09:49:44Z</time>
      </trkpt>
      <trkpt lat="47.26997" lon="1.8657">
        <ele>98</ele>
        <time>2018-04-18T09:49:45Z</time>
      </trkpt>
      <trkpt lat="47.26997" lon="1.86569">
        <ele>98</ele>
        <time>2018-04-18T09:49:48Z</time>
      </trkpt>
      <trkpt lat="47.26997" lon="1.86569">
        <ele>98</ele>
        <time>2018-04-18T09:49:51Z</time>
      </trkpt>
      <trkpt lat="47.26998" lon="1.86568">
        <ele>98</ele>
        <time>2018-04-18T09:49:58Z</time>
      </trkpt>
      <trkpt lat="47.26994" lon="1.86571">
        <ele>98</ele>
        <time>2018-04-18T09:50:09Z</time>
      </trkpt>
      <trkpt lat="47.26998" lon="1.86568">
        <ele>98</ele>
        <time>2018-04-18T09:50:15Z</time>
      </trkpt>
      <trkpt lat="47.26996" lon="1.86564">
        <ele>97</ele>
        <time>2018-04-18T09:50:36Z</time>
      </trkpt>
      <trkpt lat="47.26995" lon="1.86565">
        <ele>97</ele>
        <time>2018-04-18T09:50:46Z</time>
      </trkpt>
      <trkpt lat="47.26995" lon="1.86564">
        <ele>97</ele>
        <time>2018-04-18T09:50:51Z</time>
      </trkpt>
      <trkpt lat="47.26995" lon="1.86564">
        <ele>97</ele>
        <time>2018-04-18T09:50:55Z</time>
      </trkpt>
      <trkpt lat="47.26992" lon="1.86562">
        <ele>97</ele>
        <time>2018-04-18T09:51:23Z</time>
      </trkpt>
      <trkpt lat="47.27" lon="1.8656">
        <ele>100</ele>
        <time>2018-04-18T09:51:42Z</time>
      </trkpt>
      <trkpt lat="47.27001" lon="1.8656">
        <ele>100</ele>
        <time>2018-04-18T09:51:48Z</time>
      </trkpt>
      <trkpt lat="47.27002" lon="1.86561">
        <ele>100</ele>
        <time>2018-04-18T09:51:56Z</time>
      </trkpt>
      <trkpt lat="47.27011" lon="1.86566">
        <ele>100</ele>
        <time>2018-04-18T09:52:14Z</time>
      </trkpt>
      <trkpt lat="47.27012" lon="1.86564">
        <ele>100</ele>
        <time>2018-04-18T09:52:16Z</time>
      </trkpt>
      <trkpt lat="47.27014" lon="1.86558">
        <ele>101</ele>
        <time>2018-04-18T09:52:23Z</time>
      </trkpt>
      <trkpt lat="47.27015" lon="1.86555">
        <ele>101</ele>
        <time>2018-04-18T09:52:25Z</time>
      </trkpt>
      <trkpt lat="47.2702" lon="1.86547">
        <ele>101</ele>
        <time>2018-04-18T09:52:30Z</time>
      </trkpt>
      <trkpt lat="47.27023" lon="1.86538">
        <ele>101</ele>
        <time>2018-04-18T09:52:34Z</time>
      </trkpt>
      <trkpt lat="47.27025" lon="1.86523">
        <ele>100</ele>
        <time>2018-04-18T09:52:41Z</time>
      </trkpt>
      <trkpt lat="47.27027" lon="1.86523">
        <ele>101</ele>
        <time>2018-04-18T09:52:43Z</time>
      </trkpt>
      <trkpt lat="47.27029" lon="1.86526">
        <ele>101</ele>
        <time>2018-04-18T09:52:45Z</time>
      </trkpt>
      <trkpt lat="47.27035" lon="1.86529">
        <ele>101</ele>
        <time>2018-04-18T09:52:50Z</time>
      </trkpt>
      <trkpt lat="47.2704" lon="1.86505">
        <ele>101</ele>
        <time>2018-04-18T09:53:01Z</time>
      </trkpt>
      <trkpt lat="47.27039" lon="1.86504">
        <ele>101</ele>
        <time>2018-04-18T09:53:07Z</time>
      </trkpt>
      <trkpt lat="47.27037" lon="1.86503">
        <ele>101</ele>
        <time>2018-04-18T09:53:32Z</time>
      </trkpt>
      <trkpt lat="47.27037" lon="1.86503">
        <ele>101</ele>
        <time>2018-04-18T09:53:33Z</time>
      </trkpt>
      <trkpt lat="47.27037" lon="1.86502">
        <ele>101</ele>
        <time>2018-04-18T09:53:38Z</time>
      </trkpt>
      <trkpt lat="47.27037" lon="1.86502">
        <ele>101</ele>
        <time>2018-04-18T09:53:40Z</time>
      </trkpt>
      <trkpt lat="47.27037" lon="1.86501">
        <ele>101</ele>
        <time>2018-04-18T09:53:42Z</time>
      </trkpt>
      <trkpt lat="47.27037" lon="1.86501">
        <ele>101</ele>
        <time>2018-04-18T09:53:47Z</time>
      </trkpt>
      <trkpt lat="47.27049" lon="1.86439">
        <ele>100</ele>
        <time>2018-04-18T09:54:05Z</time>
      </trkpt>
      <trkpt lat="47.27052" lon="1.86413">
        <ele>99</ele>
        <time>2018-04-18T09:54:11Z</time>
      </trkpt>
      <trkpt lat="47.27052" lon="1.86409">
        <ele>99</ele>
        <time>2018-04-18T09:54:12Z</time>
      </trkpt>
      <trkpt lat="47.27059" lon="1.86359">
        <ele>99</ele>
        <time>2018-04-18T09:54:24Z</time>
      </trkpt>
      <trkpt lat="47.27063" lon="1.86332">
        <ele>99</ele>
        <time>2018-04-18T09:54:29Z</time>
      </trkpt>
      <trkpt lat="47.27075" lon="1.86255">
        <ele>99</ele>
        <time>2018-04-18T09:54:41Z</time>
      </trkpt>
      <trkpt lat="47.27086" lon="1.86191">
        <ele>101</ele>
        <time>2018-04-18T09:54:52Z</time>
      </trkpt>
      <trkpt lat="47.27106" lon="1.86112">
        <ele>98</ele>
        <time>2018-04-18T09:55:04Z</time>
      </trkpt>
      <trkpt lat="47.27123" lon="1.86058">
        <ele>96</ele>
        <time>2018-04-18T09:55:11Z</time>
      </trkpt>
      <trkpt lat="47.27141" lon="1.86002">
        <ele>97</ele>
        <time>2018-04-18T09:55:19Z</time>
      </trkpt>
      <trkpt lat="47.27156" lon="1.85953">
        <ele>95</ele>
        <time>2018-04-18T09:55:26Z</time>
      </trkpt>
      <trkpt lat="47.27174" lon="1.85904">
        <ele>98</ele>
        <time>2018-04-18T09:55:34Z</time>
      </trkpt>
      <trkpt lat="47.27176" lon="1.85898">
        <ele>99</ele>
        <time>2018-04-18T09:55:35Z</time>
      </trkpt>
      <trkpt lat="47.27183" lon="1.85881">
        <ele>99</ele>
        <time>2018-04-18T09:55:38Z</time>
      </trkpt>
      <trkpt lat="47.27191" lon="1.85866">
        <ele>100</ele>
        <time>2018-04-18T09:55:41Z</time>
      </trkpt>
      <trkpt lat="47.27196" lon="1.85857">
        <ele>100</ele>
        <time>2018-04-18T09:55:43Z</time>
      </trkpt>
      <trkpt lat="47.2721" lon="1.85827">
        <ele>99</ele>
        <time>2018-04-18T09:55:50Z</time>
      </trkpt>
      <trkpt lat="47.27217" lon="1.85815">
        <ele>99</ele>
        <time>2018-04-18T09:55:53Z</time>
      </trkpt>
      <trkpt lat="47.27236" lon="1.8578">
        <ele>99</ele>
        <time>2018-04-18T09:56:02Z</time>
      </trkpt>
      <trkpt lat="47.27243" lon="1.85769">
        <ele>100</ele>
        <time>2018-04-18T09:56:05Z</time>
      </trkpt>
      <trkpt lat="47.27257" lon="1.85744">
        <ele>102</ele>
        <time>2018-04-18T09:56:12Z</time>
      </trkpt>
      <trkpt lat="47.27258" lon="1.8574">
        <ele>102</ele>
        <time>2018-04-18T09:56:13Z</time>
      </trkpt>
      <trkpt lat="47.27262" lon="1.85731">
        <ele>103</ele>
        <time>2018-04-18T09:56:15Z</time>
      </trkpt>
      <trkpt lat="47.27266" lon="1.85722">
        <ele>103</ele>
        <time>2018-04-18T09:56:17Z</time>
      </trkpt>
      <trkpt lat="47.2727" lon="1.85711">
        <ele>103</ele>
        <time>2018-04-18T09:56:19Z</time>
      </trkpt>
      <trkpt lat="47.27271" lon="1.85705">
        <ele>103</ele>
        <time>2018-04-18T09:56:20Z</time>
      </trkpt>
      <trkpt lat="47.27277" lon="1.85688">
        <ele>102</ele>
        <time>2018-04-18T09:56:23Z</time>
      </trkpt>
      <trkpt lat="47.2728" lon="1.85681">
        <ele>102</ele>
        <time>2018-04-18T09:56:24Z</time>
      </trkpt>
      <trkpt lat="47.27282" lon="1.85675">
        <ele>102</ele>
        <time>2018-04-18T09:56:25Z</time>
      </trkpt>
      <trkpt lat="47.27284" lon="1.85668">
        <ele>102</ele>
        <time>2018-04-18T09:56:26Z</time>
      </trkpt>
      <trkpt lat="47.27287" lon="1.85661">
        <ele>99</ele>
        <time>2018-04-18T09:56:27Z</time>
      </trkpt>
      <trkpt lat="47.27315" lon="1.8559">
        <ele>100</ele>
        <time>2018-04-18T09:56:36Z</time>
      </trkpt>
      <trkpt lat="47.27341" lon="1.8553">
        <ele>100</ele>
        <time>2018-04-18T09:56:44Z</time>
      </trkpt>
      <trkpt lat="47.2735" lon="1.85509">
        <ele>99</ele>
        <time>2018-04-18T09:56:47Z</time>
      </trkpt>
      <trkpt lat="47.27362" lon="1.85482">
        <ele>97</ele>
        <time>2018-04-18T09:56:51Z</time>
      </trkpt>
      <trkpt lat="47.27374" lon="1.85452">
        <ele>97</ele>
        <time>2018-04-18T09:56:55Z</time>
      </trkpt>
      <trkpt lat="47.27384" lon="1.85429">
        <ele>97</ele>
        <time>2018-04-18T09:56:58Z</time>
      </trkpt>
      <trkpt lat="47.27387" lon="1.85421">
        <ele>97</ele>
        <time>2018-04-18T09:56:59Z</time>
      </trkpt>
      <trkpt lat="47.27392" lon="1.85405">
        <ele>96</ele>
        <time>2018-04-18T09:57:01Z</time>
      </trkpt>
      <trkpt lat="47.274" lon="1.85381">
        <ele>95</ele>
        <time>2018-04-18T09:57:04Z</time>
      </trkpt>
      <trkpt lat="47.27403" lon="1.85373">
        <ele>95</ele>
        <time>2018-04-18T09:57:05Z</time>
      </trkpt>
      <trkpt lat="47.27413" lon="1.85344">
        <ele>95</ele>
        <time>2018-04-18T09:57:09Z</time>
      </trkpt>
      <trkpt lat="47.27417" lon="1.85337">
        <ele>97</ele>
        <time>2018-04-18T09:57:10Z</time>
      </trkpt>
      <trkpt lat="47.27425" lon="1.85324">
        <ele>96</ele>
        <time>2018-04-18T09:57:12Z</time>
      </trkpt>
      <trkpt lat="47.27432" lon="1.85311">
        <ele>97</ele>
        <time>2018-04-18T09:57:14Z</time>
      </trkpt>
      <trkpt lat="47.27449" lon="1.85244">
        <ele>94</ele>
        <time>2018-04-18T09:57:22Z</time>
      </trkpt>
      <trkpt lat="47.27452" lon="1.85226">
        <ele>94</ele>
        <time>2018-04-18T09:57:24Z</time>
      </trkpt>
      <trkpt lat="47.27457" lon="1.85198">
        <ele>94</ele>
        <time>2018-04-18T09:57:27Z</time>
      </trkpt>
      <trkpt lat="47.2746" lon="1.85179">
        <ele>94</ele>
        <time>2018-04-18T09:57:29Z</time>
      </trkpt>
      <trkpt lat="47.27466" lon="1.85152">
        <ele>94</ele>
        <time>2018-04-18T09:57:32Z</time>
      </trkpt>
      <trkpt lat="47.27468" lon="1.85143">
        <ele>95</ele>
        <time>2018-04-18T09:57:33Z</time>
      </trkpt>
      <trkpt lat="47.27473" lon="1.85125">
        <ele>95</ele>
        <time>2018-04-18T09:57:35Z</time>
      </trkpt>
      <trkpt lat="47.27478" lon="1.85108">
        <ele>95</ele>
        <time>2018-04-18T09:57:37Z</time>
      </trkpt>
      <trkpt lat="47.27501" lon="1.8503">
        <ele>99</ele>
        <time>2018-04-18T09:57:47Z</time>
      </trkpt>
      <trkpt lat="47.27524" lon="1.84955">
        <ele>98</ele>
        <time>2018-04-18T09:57:57Z</time>
      </trkpt>
      <trkpt lat="47.27547" lon="1.84883">
        <ele>96</ele>
        <time>2018-04-18T09:58:07Z</time>
      </trkpt>
      <trkpt lat="47.27573" lon="1.84809">
        <ele>95</ele>
        <time>2018-04-18T09:58:18Z</time>
      </trkpt>
      <trkpt lat="47.276" lon="1.84734">
        <ele>96</ele>
        <time>2018-04-18T09:58:30Z</time>
      </trkpt>
      <trkpt lat="47.2763" lon="1.84668">
        <ele>96</ele>
        <time>2018-04-18T09:58:40Z</time>
      </trkpt>
      <trkpt lat="47.27657" lon="1.84609">
        <ele>93</ele>
        <time>2018-04-18T09:58:49Z</time>
      </trkpt>
      <trkpt lat="47.27687" lon="1.8454">
        <ele>97</ele>
        <time>2018-04-18T09:58:59Z</time>
      </trkpt>
      <trkpt lat="47.27716" lon="1.84472">
        <ele>97</ele>
        <time>2018-04-18T09:59:10Z</time>
      </trkpt>
      <trkpt lat="47.27736" lon="1.84424">
        <ele>97</ele>
        <time>2018-04-18T09:59:18Z</time>
      </trkpt>
      <trkpt lat="47.27763" lon="1.84358">
        <ele>99</ele>
        <time>2018-04-18T09:59:28Z</time>
      </trkpt>
      <trkpt lat="47.27786" lon="1.84301">
        <ele>97</ele>
        <time>2018-04-18T09:59:36Z</time>
      </trkpt>
      <trkpt lat="47.27814" lon="1.84229">
        <ele>95</ele>
        <time>2018-04-18T09:59:46Z</time>
      </trkpt>
      <trkpt lat="47.27842" lon="1.84156">
        <ele>94</ele>
        <time>2018-04-18T09:59:56Z</time>
      </trkpt>
      <trkpt lat="47.27868" lon="1.84085">
        <ele>94</ele>
        <time>2018-04-18T10:00:06Z</time>
      </trkpt>
      <trkpt lat="47.27897" lon="1.84009">
        <ele>92</ele>
        <time>2018-04-18T10:00:17Z</time>
      </trkpt>
      <trkpt lat="47.27923" lon="1.8394">
        <ele>94</ele>
        <time>2018-04-18T10:00:27Z</time>
      </trkpt>
      <trkpt lat="47.27949" lon="1.83871">
        <ele>92</ele>
        <time>2018-04-18T10:00:37Z</time>
      </trkpt>
      <trkpt lat="47.2797" lon="1.83817">
        <ele>91</ele>
        <time>2018-04-18T10:00:45Z</time>
      </trkpt>
      <trkpt lat="47.28007" lon="1.83755">
        <ele>92</ele>
        <time>2018-04-18T10:00:57Z</time>
      </trkpt>
      <trkpt lat="47.28043" lon="1.83693">
        <ele>93</ele>
        <time>2018-04-18T10:01:11Z</time>
      </trkpt>
      <trkpt lat="47.28078" lon="1.83632">
        <ele>91</ele>
        <time>2018-04-18T10:01:24Z</time>
      </trkpt>
      <trkpt lat="47.28101" lon="1.83593">
        <ele>95</ele>
        <time>2018-04-18T10:01:32Z</time>
      </trkpt>
      <trkpt lat="47.28106" lon="1.83583">
        <ele>93</ele>
        <time>2018-04-18T10:01:34Z</time>
      </trkpt>
      <trkpt lat="47.2814" lon="1.83516">
        <ele>95</ele>
        <time>2018-04-18T10:01:50Z</time>
      </trkpt>
      <trkpt lat="47.28172" lon="1.83449">
        <ele>100</ele>
        <time>2018-04-18T10:02:05Z</time>
      </trkpt>
      <trkpt lat="47.28203" lon="1.83381">
        <ele>99</ele>
        <time>2018-04-18T10:02:19Z</time>
      </trkpt>
      <trkpt lat="47.28232" lon="1.83313">
        <ele>97</ele>
        <time>2018-04-18T10:02:33Z</time>
      </trkpt>
      <trkpt lat="47.28239" lon="1.83298">
        <ele>97</ele>
        <time>2018-04-18T10:02:36Z</time>
      </trkpt>
      <trkpt lat="47.28268" lon="1.83229">
        <ele>98</ele>
        <time>2018-04-18T10:02:48Z</time>
      </trkpt>
      <trkpt lat="47.28297" lon="1.83161">
        <ele>97</ele>
        <time>2018-04-18T10:03:00Z</time>
      </trkpt>
      <trkpt lat="47.28326" lon="1.83087">
        <ele>97</ele>
        <time>2018-04-18T10:03:12Z</time>
      </trkpt>
      <trkpt lat="47.28335" lon="1.83062">
        <ele>99</ele>
        <time>2018-04-18T10:03:16Z</time>
      </trkpt>
      <trkpt lat="47.28342" lon="1.83043">
        <ele>99</ele>
        <time>2018-04-18T10:03:19Z</time>
      </trkpt>
      <trkpt lat="47.28367" lon="1.8297">
        <ele>98</ele>
        <time>2018-04-18T10:03:31Z</time>
      </trkpt>
      <trkpt lat="47.28395" lon="1.829">
        <ele>98</ele>
        <time>2018-04-18T10:03:43Z</time>
      </trkpt>
      <trkpt lat="47.28421" lon="1.82827">
        <ele>99</ele>
        <time>2018-04-18T10:03:55Z</time>
      </trkpt>
      <trkpt lat="47.28446" lon="1.82753">
        <ele>101</ele>
        <time>2018-04-18T10:04:07Z</time>
      </trkpt>
      <trkpt lat="47.28475" lon="1.82682">
        <ele>102</ele>
        <time>2018-04-18T10:04:24Z</time>
      </trkpt>
      <trkpt lat="47.28495" lon="1.8262">
        <ele>100</ele>
        <time>2018-04-18T10:04:40Z</time>
      </trkpt>
      <trkpt lat="47.28518" lon="1.82556">
        <ele>102</ele>
        <time>2018-04-18T10:04:55Z</time>
      </trkpt>
      <trkpt lat="47.28517" lon="1.82555">
        <ele>102</ele>
        <time>2018-04-18T10:05:38Z</time>
      </trkpt>
      <trkpt lat="47.28517" lon="1.82555">
        <ele>102</ele>
        <time>2018-04-18T10:05:44Z</time>
      </trkpt>
      <trkpt lat="47.28517" lon="1.82555">
        <ele>102</ele>
        <time>2018-04-18T10:05:49Z</time>
      </trkpt>
      <trkpt lat="47.28517" lon="1.82555">
        <ele>102</ele>
        <time>2018-04-18T10:05:53Z</time>
      </trkpt>
      <trkpt lat="47.28518" lon="1.82556">
        <ele>102</ele>
        <time>2018-04-18T10:06:07Z</time>
      </trkpt>
      <trkpt lat="47.28518" lon="1.82556">
        <ele>102</ele>
        <time>2018-04-18T10:06:13Z</time>
      </trkpt>
      <trkpt lat="47.28518" lon="1.82556">
        <ele>102</ele>
        <time>2018-04-18T10:06:14Z</time>
      </trkpt>
      <trkpt lat="47.28531" lon="1.82507">
        <ele>101</ele>
        <time>2018-04-18T10:06:25Z</time>
      </trkpt>
      <trkpt lat="47.28537" lon="1.82487">
        <ele>100</ele>
        <time>2018-04-18T10:06:28Z</time>
      </trkpt>
      <trkpt lat="47.28554" lon="1.82406">
        <ele>100</ele>
        <time>2018-04-18T10:06:40Z</time>
      </trkpt>
      <trkpt lat="47.28564" lon="1.8235">
        <ele>100</ele>
        <time>2018-04-18T10:06:48Z</time>
      </trkpt>
      <trkpt lat="47.28575" lon="1.8227">
        <ele>98</ele>
        <time>2018-04-18T10:06:59Z</time>
      </trkpt>
      <trkpt lat="47.28578" lon="1.82249">
        <ele>99</ele>
        <time>2018-04-18T10:07:02Z</time>
      </trkpt>
      <trkpt lat="47.28591" lon="1.82165">
        <ele>99</ele>
        <time>2018-04-18T10:07:14Z</time>
      </trkpt>
      <trkpt lat="47.28597" lon="1.82132">
        <ele>101</ele>
        <time>2018-04-18T10:07:19Z</time>
      </trkpt>
      <trkpt lat="47.28601" lon="1.82104">
        <ele>100</ele>
        <time>2018-04-18T10:07:23Z</time>
      </trkpt>
      <trkpt lat="47.28603" lon="1.82091">
        <ele>100</ele>
        <time>2018-04-18T10:07:25Z</time>
      </trkpt>
      <trkpt lat="47.28618" lon="1.82012">
        <ele>99</ele>
        <time>2018-04-18T10:07:36Z</time>
      </trkpt>
      <trkpt lat="47.28629" lon="1.8197">
        <ele>99</ele>
        <time>2018-04-18T10:07:42Z</time>
      </trkpt>
      <trkpt lat="47.28649" lon="1.8189">
        <ele>98</ele>
        <time>2018-04-18T10:07:54Z</time>
      </trkpt>
      <trkpt lat="47.28668" lon="1.81812">
        <ele>103</ele>
        <time>2018-04-18T10:08:07Z</time>
      </trkpt>
      <trkpt lat="47.28676" lon="1.81726">
        <ele>101</ele>
        <time>2018-04-18T10:08:20Z</time>
      </trkpt>
      <trkpt lat="47.28683" lon="1.81647">
        <ele>99</ele>
        <time>2018-04-18T10:08:30Z</time>
      </trkpt>
      <trkpt lat="47.2869" lon="1.81567">
        <ele>97</ele>
        <time>2018-04-18T10:08:40Z</time>
      </trkpt>
      <trkpt lat="47.28698" lon="1.81502">
        <ele>97</ele>
        <time>2018-04-18T10:08:56Z</time>
      </trkpt>
      <trkpt lat="47.28699" lon="1.81498">
        <ele>97</ele>
        <time>2018-04-18T10:08:57Z</time>
      </trkpt>
      <trkpt lat="47.287" lon="1.81493">
        <ele>97</ele>
        <time>2018-04-18T10:08:59Z</time>
      </trkpt>
      <trkpt lat="47.28701" lon="1.8149">
        <ele>97</ele>
        <time>2018-04-18T10:09:00Z</time>
      </trkpt>
      <trkpt lat="47.28704" lon="1.81478">
        <ele>98</ele>
        <time>2018-04-18T10:09:04Z</time>
      </trkpt>
      <trkpt lat="47.28705" lon="1.81475">
        <ele>98</ele>
        <time>2018-04-18T10:09:05Z</time>
      </trkpt>
      <trkpt lat="47.28706" lon="1.81473">
        <ele>98</ele>
        <time>2018-04-18T10:09:06Z</time>
      </trkpt>
      <trkpt lat="47.28707" lon="1.81463">
        <ele>98</ele>
        <time>2018-04-18T10:09:09Z</time>
      </trkpt>
      <trkpt lat="47.2871" lon="1.81454">
        <ele>98</ele>
        <time>2018-04-18T10:09:12Z</time>
      </trkpt>
      <trkpt lat="47.28718" lon="1.81418">
        <ele>99</ele>
        <time>2018-04-18T10:09:22Z</time>
      </trkpt>
      <trkpt lat="47.28721" lon="1.81397">
        <ele>98</ele>
        <time>2018-04-18T10:09:27Z</time>
      </trkpt>
      <trkpt lat="47.28735" lon="1.81319">
        <ele>98</ele>
        <time>2018-04-18T10:09:46Z</time>
      </trkpt>
      <trkpt lat="47.2874" lon="1.81289">
        <ele>97</ele>
        <time>2018-04-18T10:09:53Z</time>
      </trkpt>
      <trkpt lat="47.28742" lon="1.8128">
        <ele>97</ele>
        <time>2018-04-18T10:09:55Z</time>
      </trkpt>
      <trkpt lat="47.28748" lon="1.81239">
        <ele>98</ele>
        <time>2018-04-18T10:10:04Z</time>
      </trkpt>
      <trkpt lat="47.28751" lon="1.81222">
        <ele>103</ele>
        <time>2018-04-18T10:10:07Z</time>
      </trkpt>
      <trkpt lat="47.2876" lon="1.81142">
        <ele>100</ele>
        <time>2018-04-18T10:10:24Z</time>
      </trkpt>
      <trkpt lat="47.28765" lon="1.81107">
        <ele>100</ele>
        <time>2018-04-18T10:10:35Z</time>
      </trkpt>
      <trkpt lat="47.28765" lon="1.81105">
        <ele>100</ele>
        <time>2018-04-18T10:10:36Z</time>
      </trkpt>
      <trkpt lat="47.28766" lon="1.81099">
        <ele>100</ele>
        <time>2018-04-18T10:10:38Z</time>
      </trkpt>
      <trkpt lat="47.28767" lon="1.81097">
        <ele>100</ele>
        <time>2018-04-18T10:10:39Z</time>
      </trkpt>
      <trkpt lat="47.28771" lon="1.81073">
        <ele>98</ele>
        <time>2018-04-18T10:10:47Z</time>
      </trkpt>
      <trkpt lat="47.28775" lon="1.81051">
        <ele>99</ele>
        <time>2018-04-18T10:10:54Z</time>
      </trkpt>
      <trkpt lat="47.28776" lon="1.81047">
        <ele>99</ele>
        <time>2018-04-18T10:10:55Z</time>
      </trkpt>
      <trkpt lat="47.28777" lon="1.81041">
        <ele>99</ele>
        <time>2018-04-18T10:10:57Z</time>
      </trkpt>
      <trkpt lat="47.28781" lon="1.81015">
        <ele>98</ele>
        <time>2018-04-18T10:11:05Z</time>
      </trkpt>
      <trkpt lat="47.28784" lon="1.80993">
        <ele>97</ele>
        <time>2018-04-18T10:11:17Z</time>
      </trkpt>
      <trkpt lat="47.28784" lon="1.80993">
        <ele>97</ele>
        <time>2018-04-18T10:11:18Z</time>
      </trkpt>
      <trkpt lat="47.28784" lon="1.80993">
        <ele>97</ele>
        <time>2018-04-18T10:11:28Z</time>
      </trkpt>
      <trkpt lat="47.28784" lon="1.80993">
        <ele>97</ele>
        <time>2018-04-18T10:11:29Z</time>
      </trkpt>
      <trkpt lat="47.28784" lon="1.8099">
        <ele>97</ele>
        <time>2018-04-18T10:11:33Z</time>
      </trkpt>
      <trkpt lat="47.28786" lon="1.80983">
        <ele>97</ele>
        <time>2018-04-18T10:11:50Z</time>
      </trkpt>
      <trkpt lat="47.28785" lon="1.80982">
        <ele>97</ele>
        <time>2018-04-18T10:11:53Z</time>
      </trkpt>
      <trkpt lat="47.28785" lon="1.80982">
        <ele>97</ele>
        <time>2018-04-18T10:11:54Z</time>
      </trkpt>
      <trkpt lat="47.28785" lon="1.80982">
        <ele>97</ele>
        <time>2018-04-18T10:11:55Z</time>
      </trkpt>
      <trkpt lat="47.28784" lon="1.80981">
        <ele>97</ele>
        <time>2018-04-18T10:12:01Z</time>
      </trkpt>
      <trkpt lat="47.28787" lon="1.80978">
        <ele>97</ele>
        <time>2018-04-18T10:12:11Z</time>
      </trkpt>
      <trkpt lat="47.28785" lon="1.80976">
        <ele>97</ele>
        <time>2018-04-18T10:12:16Z</time>
      </trkpt>
      <trkpt lat="47.28784" lon="1.80971">
        <ele>97</ele>
        <time>2018-04-18T10:12:20Z</time>
      </trkpt>
      <trkpt lat="47.28784" lon="1.8096">
        <ele>97</ele>
        <time>2018-04-18T10:12:24Z</time>
      </trkpt>
      <trkpt lat="47.28788" lon="1.80932">
        <ele>97</ele>
        <time>2018-04-18T10:12:30Z</time>
      </trkpt>
      <trkpt lat="47.28788" lon="1.80925">
        <ele>97</ele>
        <time>2018-04-18T10:12:32Z</time>
      </trkpt>
      <trkpt lat="47.28788" lon="1.80921">
        <ele>97</ele>
        <time>2018-04-18T10:12:33Z</time>
      </trkpt>
      <trkpt lat="47.28788" lon="1.80918">
        <ele>97</ele>
        <time>2018-04-18T10:12:34Z</time>
      </trkpt>
      <trkpt lat="47.28789" lon="1.80913">
        <ele>96</ele>
        <time>2018-04-18T10:12:35Z</time>
      </trkpt>
      <trkpt lat="47.28793" lon="1.80875">
        <ele>96</ele>
        <time>2018-04-18T10:12:43Z</time>
      </trkpt>
      <trkpt lat="47.28794" lon="1.80863">
        <ele>96</ele>
        <time>2018-04-18T10:12:45Z</time>
      </trkpt>
      <trkpt lat="47.28795" lon="1.80846">
        <ele>96</ele>
        <time>2018-04-18T10:12:48Z</time>
      </trkpt>
      <trkpt lat="47.28798" lon="1.80818">
        <ele>95</ele>
        <time>2018-04-18T10:12:54Z</time>
      </trkpt>
      <trkpt lat="47.28806" lon="1.80765">
        <ele>95</ele>
        <time>2018-04-18T10:13:05Z</time>
      </trkpt>
      <trkpt lat="47.28808" lon="1.80748">
        <ele>93</ele>
        <time>2018-04-18T10:13:08Z</time>
      </trkpt>
      <trkpt lat="47.28811" lon="1.80727">
        <ele>93</ele>
        <time>2018-04-18T10:13:12Z</time>
      </trkpt>
      <trkpt lat="47.28819" lon="1.80678">
        <ele>93</ele>
        <time>2018-04-18T10:13:22Z</time>
      </trkpt>
      <trkpt lat="47.28822" lon="1.80643">
        <ele>93</ele>
        <time>2018-04-18T10:13:33Z</time>
      </trkpt>
      <trkpt lat="47.28827" lon="1.80584">
        <ele>95</ele>
        <time>2018-04-18T10:13:48Z</time>
      </trkpt>
      <trkpt lat="47.28827" lon="1.8058">
        <ele>95</ele>
        <time>2018-04-18T10:13:49Z</time>
      </trkpt>
      <trkpt lat="47.28828" lon="1.80576">
        <ele>95</ele>
        <time>2018-04-18T10:13:50Z</time>
      </trkpt>
      <trkpt lat="47.28832" lon="1.8055">
        <ele>94</ele>
        <time>2018-04-18T10:13:57Z</time>
      </trkpt>
      <trkpt lat="47.28837" lon="1.80496">
        <ele>97</ele>
        <time>2018-04-18T10:14:11Z</time>
      </trkpt>
      <trkpt lat="47.28841" lon="1.80485">
        <ele>97</ele>
        <time>2018-04-18T10:14:14Z</time>
      </trkpt>
      <trkpt lat="47.28845" lon="1.80466">
        <ele>98</ele>
        <time>2018-04-18T10:14:19Z</time>
      </trkpt>
      <trkpt lat="47.28851" lon="1.80449">
        <ele>98</ele>
        <time>2018-04-18T10:14:24Z</time>
      </trkpt>
      <trkpt lat="47.28861" lon="1.80408">
        <ele>97</ele>
        <time>2018-04-18T10:14:35Z</time>
      </trkpt>
      <trkpt lat="47.28864" lon="1.80395">
        <ele>98</ele>
        <time>2018-04-18T10:14:38Z</time>
      </trkpt>
      <trkpt lat="47.28875" lon="1.80357">
        <ele>99</ele>
        <time>2018-04-18T10:14:48Z</time>
      </trkpt>
      <trkpt lat="47.28886" lon="1.80279">
        <ele>99</ele>
        <time>2018-04-18T10:15:03Z</time>
      </trkpt>
      <trkpt lat="47.28893" lon="1.80231">
        <ele>98</ele>
        <time>2018-04-18T10:15:12Z</time>
      </trkpt>
      <trkpt lat="47.2891" lon="1.8015">
        <ele>97</ele>
        <time>2018-04-18T10:15:27Z</time>
      </trkpt>
      <trkpt lat="47.28923" lon="1.80079">
        <ele>98</ele>
        <time>2018-04-18T10:15:38Z</time>
      </trkpt>
      <trkpt lat="47.28939" lon="1.80001">
        <ele>99</ele>
        <time>2018-04-18T10:15:51Z</time>
      </trkpt>
      <trkpt lat="47.28943" lon="1.79984">
        <ele>98</ele>
        <time>2018-04-18T10:15:54Z</time>
      </trkpt>
      <trkpt lat="47.28958" lon="1.7991">
        <ele>97</ele>
        <time>2018-04-18T10:16:08Z</time>
      </trkpt>
      <trkpt lat="47.28974" lon="1.79836">
        <ele>98</ele>
        <time>2018-04-18T10:16:23Z</time>
      </trkpt>
      <trkpt lat="47.28977" lon="1.79829">
        <ele>97</ele>
        <time>2018-04-18T10:16:25Z</time>
      </trkpt>
      <trkpt lat="47.28983" lon="1.79794">
        <ele>97</ele>
        <time>2018-04-18T10:16:32Z</time>
      </trkpt>
      <trkpt lat="47.28997" lon="1.79717">
        <ele>96</ele>
        <time>2018-04-18T10:16:49Z</time>
      </trkpt>
      <trkpt lat="47.29015" lon="1.79641">
        <ele>98</ele>
        <time>2018-04-18T10:17:04Z</time>
      </trkpt>
      <trkpt lat="47.29017" lon="1.79618">
        <ele>98</ele>
        <time>2018-04-18T10:17:08Z</time>
      </trkpt>
      <trkpt lat="47.29021" lon="1.79595">
        <ele>97</ele>
        <time>2018-04-18T10:17:12Z</time>
      </trkpt>
      <trkpt lat="47.29038" lon="1.79518">
        <ele>95</ele>
        <time>2018-04-18T10:17:25Z</time>
      </trkpt>
      <trkpt lat="47.29042" lon="1.79494">
        <ele>94</ele>
        <time>2018-04-18T10:17:29Z</time>
      </trkpt>
      <trkpt lat="47.29044" lon="1.79483">
        <ele>94</ele>
        <time>2018-04-18T10:17:31Z</time>
      </trkpt>
      <trkpt lat="47.29049" lon="1.7945">
        <ele>94</ele>
        <time>2018-04-18T10:17:43Z</time>
      </trkpt>
      <trkpt lat="47.29049" lon="1.79449">
        <ele>94</ele>
        <time>2018-04-18T10:17:44Z</time>
      </trkpt>
      <trkpt lat="47.29049" lon="1.7944">
        <ele>94</ele>
        <time>2018-04-18T10:17:51Z</time>
      </trkpt>
      <trkpt lat="47.29055" lon="1.79415">
        <ele>94</ele>
        <time>2018-04-18T10:18:10Z</time>
      </trkpt>
      <trkpt lat="47.29073" lon="1.79335">
        <ele>95</ele>
        <time>2018-04-18T10:18:39Z</time>
      </trkpt>
      <trkpt lat="47.29077" lon="1.79304">
        <ele>94</ele>
        <time>2018-04-18T10:18:48Z</time>
      </trkpt>
      <trkpt lat="47.29083" lon="1.79285">
        <ele>94</ele>
        <time>2018-04-18T10:18:54Z</time>
      </trkpt>
      <trkpt lat="47.29087" lon="1.79268">
        <ele>96</ele>
        <time>2018-04-18T10:18:59Z</time>
      </trkpt>
      <trkpt lat="47.29089" lon="1.79261">
        <ele>96</ele>
        <time>2018-04-18T10:19:01Z</time>
      </trkpt>
      <trkpt lat="47.29098" lon="1.79216">
        <ele>96</ele>
        <time>2018-04-18T10:19:13Z</time>
      </trkpt>
      <trkpt lat="47.29098" lon="1.79212">
        <ele>96</ele>
        <time>2018-04-18T10:19:14Z</time>
      </trkpt>
      <trkpt lat="47.291" lon="1.79204">
        <ele>95</ele>
        <time>2018-04-18T10:19:16Z</time>
      </trkpt>
      <trkpt lat="47.29114" lon="1.79128">
        <ele>94</ele>
        <time>2018-04-18T10:19:34Z</time>
      </trkpt>
      <trkpt lat="47.29116" lon="1.7912">
        <ele>94</ele>
        <time>2018-04-18T10:19:36Z</time>
      </trkpt>
      <trkpt lat="47.29119" lon="1.79112">
        <ele>94</ele>
        <time>2018-04-18T10:19:38Z</time>
      </trkpt>
      <trkpt lat="47.2915" lon="1.79058">
        <ele>94</ele>
        <time>2018-04-18T10:19:53Z</time>
      </trkpt>
      <trkpt lat="47.29178" lon="1.79006">
        <ele>96</ele>
        <time>2018-04-18T10:20:08Z</time>
      </trkpt>
      <trkpt lat="47.29193" lon="1.78928">
        <ele>97</ele>
        <time>2018-04-18T10:20:25Z</time>
      </trkpt>
      <trkpt lat="47.29191" lon="1.7888">
        <ele>96</ele>
        <time>2018-04-18T10:20:34Z</time>
      </trkpt>
      <trkpt lat="47.29199" lon="1.78799">
        <ele>95</ele>
        <time>2018-04-18T10:20:47Z</time>
      </trkpt>
      <trkpt lat="47.292" lon="1.78781">
        <ele>95</ele>
        <time>2018-04-18T10:20:50Z</time>
      </trkpt>
      <trkpt lat="47.29203" lon="1.78713">
        <ele>94</ele>
        <time>2018-04-18T10:21:02Z</time>
      </trkpt>
      <trkpt lat="47.2921" lon="1.78644">
        <ele>93</ele>
        <time>2018-04-18T10:21:14Z</time>
      </trkpt>
      <trkpt lat="47.29221" lon="1.78566">
        <ele>93</ele>
        <time>2018-04-18T10:21:29Z</time>
      </trkpt>
      <trkpt lat="47.29228" lon="1.78554">
        <ele>93</ele>
        <time>2018-04-18T10:21:33Z</time>
      </trkpt>
      <trkpt lat="47.29234" lon="1.78546">
        <ele>93</ele>
        <time>2018-04-18T10:21:39Z</time>
      </trkpt>
      <trkpt lat="47.29236" lon="1.78502">
        <ele>93</ele>
        <time>2018-04-18T10:21:48Z</time>
      </trkpt>
      <trkpt lat="47.29241" lon="1.78467">
        <ele>92</ele>
        <time>2018-04-18T10:21:54Z</time>
      </trkpt>
      <trkpt lat="47.29246" lon="1.78438">
        <ele>93</ele>
        <time>2018-04-18T10:21:59Z</time>
      </trkpt>
      <trkpt lat="47.29263" lon="1.78357">
        <ele>97</ele>
        <time>2018-04-18T10:22:14Z</time>
      </trkpt>
      <trkpt lat="47.29278" lon="1.78283">
        <ele>97</ele>
        <time>2018-04-18T10:22:27Z</time>
      </trkpt>
      <trkpt lat="47.29293" lon="1.78206">
        <ele>96</ele>
        <time>2018-04-18T10:22:39Z</time>
      </trkpt>
      <trkpt lat="47.29296" lon="1.78192">
        <ele>96</ele>
        <time>2018-04-18T10:22:41Z</time>
      </trkpt>
      <trkpt lat="47.29299" lon="1.78177">
        <ele>96</ele>
        <time>2018-04-18T10:22:43Z</time>
      </trkpt>
      <trkpt lat="47.29314" lon="1.78099">
        <ele>96</ele>
        <time>2018-04-18T10:22:55Z</time>
      </trkpt>
      <trkpt lat="47.29323" lon="1.78057">
        <ele>95</ele>
        <time>2018-04-18T10:23:01Z</time>
      </trkpt>
      <trkpt lat="47.29334" lon="1.7799">
        <ele>97</ele>
        <time>2018-04-18T10:23:12Z</time>
      </trkpt>
      <trkpt lat="47.29345" lon="1.77938">
        <ele>98</ele>
        <time>2018-04-18T10:23:20Z</time>
      </trkpt>
      <trkpt lat="47.29361" lon="1.77859">
        <ele>99</ele>
        <time>2018-04-18T10:23:32Z</time>
      </trkpt>
      <trkpt lat="47.29362" lon="1.77853">
        <ele>99</ele>
        <time>2018-04-18T10:23:33Z</time>
      </trkpt>
      <trkpt lat="47.29378" lon="1.77776">
        <ele>100</ele>
        <time>2018-04-18T10:23:45Z</time>
      </trkpt>
      <trkpt lat="47.2939" lon="1.77713">
        <ele>100</ele>
        <time>2018-04-18T10:23:59Z</time>
      </trkpt>
      <trkpt lat="47.29404" lon="1.77635">
        <ele>99</ele>
        <time>2018-04-18T10:24:14Z</time>
      </trkpt>
      <trkpt lat="47.29412" lon="1.77598">
        <ele>100</ele>
        <time>2018-04-18T10:24:22Z</time>
      </trkpt>
      <trkpt lat="47.29365" lon="1.77592">
        <ele>97</ele>
        <time>2018-04-18T10:24:34Z</time>
      </trkpt>
      <trkpt lat="47.29352" lon="1.77589">
        <ele>96</ele>
        <time>2018-04-18T10:24:39Z</time>
      </trkpt>
      <trkpt lat="47.29351" lon="1.77564">
        <ele>96</ele>
        <time>2018-04-18T10:24:50Z</time>
      </trkpt>
      <trkpt lat="47.29354" lon="1.77589">
        <ele>96</ele>
        <time>2018-04-18T10:25:10Z</time>
      </trkpt>
      <trkpt lat="47.29354" lon="1.77589">
        <ele>96</ele>
        <time>2018-04-18T10:25:16Z</time>
      </trkpt>
      <trkpt lat="47.29354" lon="1.77589">
        <ele>96</ele>
        <time>2018-04-18T10:25:25Z</time>
      </trkpt>
      <trkpt lat="47.29354" lon="1.77587">
        <ele>96</ele>
        <time>2018-04-18T10:25:36Z</time>
      </trkpt>
      <trkpt lat="47.29354" lon="1.7758">
        <ele>96</ele>
        <time>2018-04-18T10:25:40Z</time>
      </trkpt>
      <trkpt lat="47.29352" lon="1.77549">
        <ele>96</ele>
        <time>2018-04-18T10:25:48Z</time>
      </trkpt>
      <trkpt lat="47.29352" lon="1.77543">
        <ele>96</ele>
        <time>2018-04-18T10:25:49Z</time>
      </trkpt>
      <trkpt lat="47.29352" lon="1.77537">
        <ele>96</ele>
        <time>2018-04-18T10:25:50Z</time>
      </trkpt>
      <trkpt lat="47.29351" lon="1.77512">
        <ele>96</ele>
        <time>2018-04-18T10:25:54Z</time>
      </trkpt>
      <trkpt lat="47.2935" lon="1.77501">
        <ele>96</ele>
        <time>2018-04-18T10:25:56Z</time>
      </trkpt>
      <trkpt lat="47.29349" lon="1.7747">
        <ele>96</ele>
        <time>2018-04-18T10:26:02Z</time>
      </trkpt>
      <trkpt lat="47.29348" lon="1.77416">
        <ele>96</ele>
        <time>2018-04-18T10:26:12Z</time>
      </trkpt>
      <trkpt lat="47.29348" lon="1.77392">
        <ele>96</ele>
        <time>2018-04-18T10:26:17Z</time>
      </trkpt>
      <trkpt lat="47.29345" lon="1.77309">
        <ele>96</ele>
        <time>2018-04-18T10:26:33Z</time>
      </trkpt>
      <trkpt lat="47.29345" lon="1.77242">
        <ele>96</ele>
        <time>2018-04-18T10:26:46Z</time>
      </trkpt>
      <trkpt lat="47.29351" lon="1.77209">
        <ele>96</ele>
        <time>2018-04-18T10:26:52Z</time>
      </trkpt>
      <trkpt lat="47.29351" lon="1.77205">
        <ele>96</ele>
        <time>2018-04-18T10:26:53Z</time>
      </trkpt>
      <trkpt lat="47.29352" lon="1.77198">
        <ele>96</ele>
        <time>2018-04-18T10:26:56Z</time>
      </trkpt>
      <trkpt lat="47.29351" lon="1.77195">
        <ele>96</ele>
        <time>2018-04-18T10:26:57Z</time>
      </trkpt>
      <trkpt lat="47.2935" lon="1.77192">
        <ele>96</ele>
        <time>2018-04-18T10:26:59Z</time>
      </trkpt>
      <trkpt lat="47.29349" lon="1.77191">
        <ele>96</ele>
        <time>2018-04-18T10:27:00Z</time>
      </trkpt>
      <trkpt lat="47.29343" lon="1.7719">
        <ele>95</ele>
        <time>2018-04-18T10:27:03Z</time>
      </trkpt>
      <trkpt lat="47.29333" lon="1.77193">
        <ele>92</ele>
        <time>2018-04-18T10:27:10Z</time>
      </trkpt>
      <trkpt lat="47.29316" lon="1.77195">
        <ele>92</ele>
        <time>2018-04-18T10:27:20Z</time>
      </trkpt>
      <trkpt lat="47.29314" lon="1.77195">
        <ele>92</ele>
        <time>2018-04-18T10:27:22Z</time>
      </trkpt>
      <trkpt lat="47.29313" lon="1.77195">
        <ele>92</ele>
        <time>2018-04-18T10:27:23Z</time>
      </trkpt>
      <trkpt lat="47.2931" lon="1.77196">
        <ele>92</ele>
        <time>2018-04-18T10:27:25Z</time>
      </trkpt>
      <trkpt lat="47.29309" lon="1.77196">
        <ele>92</ele>
        <time>2018-04-18T10:27:26Z</time>
      </trkpt>
      <trkpt lat="47.29307" lon="1.77196">
        <ele>91</ele>
        <time>2018-04-18T10:27:27Z</time>
      </trkpt>
      <trkpt lat="47.29306" lon="1.77197">
        <ele>91</ele>
        <time>2018-04-18T10:27:28Z</time>
      </trkpt>
      <trkpt lat="47.29305" lon="1.77198">
        <ele>91</ele>
        <time>2018-04-18T10:27:29Z</time>
      </trkpt>
      <trkpt lat="47.29304" lon="1.77199">
        <ele>91</ele>
        <time>2018-04-18T10:27:31Z</time>
      </trkpt>
      <trkpt lat="47.29303" lon="1.772">
        <ele>91</ele>
        <time>2018-04-18T10:27:32Z</time>
      </trkpt>
      <trkpt lat="47.29304" lon="1.77202">
        <ele>91</ele>
        <time>2018-04-18T10:27:37Z</time>
      </trkpt>
      <trkpt lat="47.29304" lon="1.77202">
        <ele>91</ele>
        <time>2018-04-18T10:27:45Z</time>
      </trkpt>
      <trkpt lat="47.29307" lon="1.77201">
        <ele>91</ele>
        <time>2018-04-18T10:27:47Z</time>
      </trkpt>
      <trkpt lat="47.29334" lon="1.77201">
        <ele>96</ele>
        <time>2018-04-18T10:27:59Z</time>
      </trkpt>
      <trkpt lat="47.29349" lon="1.77206">
        <ele>96</ele>
        <time>2018-04-18T10:28:08Z</time>
      </trkpt>
      <trkpt lat="47.29343" lon="1.77235">
        <ele>96</ele>
        <time>2018-04-18T10:28:18Z</time>
      </trkpt>
      <trkpt lat="47.29341" lon="1.77251">
        <ele>96</ele>
        <time>2018-04-18T10:28:23Z</time>
      </trkpt>
      <trkpt lat="47.29342" lon="1.77279">
        <ele>96</ele>
        <time>2018-04-18T10:28:31Z</time>
      </trkpt>
      <trkpt lat="47.29343" lon="1.77355">
        <ele>96</ele>
        <time>2018-04-18T10:28:51Z</time>
      </trkpt>
      <trkpt lat="47.29346" lon="1.77435">
        <ele>96</ele>
        <time>2018-04-18T10:29:08Z</time>
      </trkpt>
      <trkpt lat="47.29349" lon="1.77519">
        <ele>96</ele>
        <time>2018-04-18T10:29:23Z</time>
      </trkpt>
      <trkpt lat="47.29351" lon="1.77598">
        <ele>96</ele>
        <time>2018-04-18T10:29:41Z</time>
      </trkpt>
    </trkseg>
  </trk>
</gpx>